M I D A S
Marine Information and Data Acquisition System
Tripno 1825 of the Zeeleeuw from 2009-12-14 07:26:12 to 2009-12-14 14:51:29
Back to CruiseResearch ActivitiesStationsMapUnderway DataData graphs

EquipmentUnitsComment
TimeDGPSUTC
LatitudeDGPSDM.mWGS84
LongitudeDGPSDM.mWGS84
TemperatureSBE03/SBE38deg celciusITS90
ConductivitySBE21S/mITS90
SalinitySBE21 Practical Salinity Units
ChlorophylAChelsea fluorimeterg/lCalibrated in Aceton
Missing or incorrect values are displayed as -999
Sea surface data collected by the RV Zeeleeuw from 2009-12-14 07:28:33 to 2009-12-14 15:00:18
                                                                                    Next 1000 lines
Time Latitude Longitude Temperature Conductivity Salinity ChlorophylA
2009-12-14 07:28:44 51°13.662 2°55.956 14.3027 0.025331 0.154287 -0.791624
2009-12-14 07:28:48 51°13.662 2°55.954 14.2579 0.025434 0.15491 -0.7568
2009-12-14 07:28:53 51°13.663 2°55.951 14.2786 0.025331 0.154281 -0.791624
2009-12-14 07:28:58 51°13.665 2°55.947 14.2197 0.025229 0.15365 -0.7568
2009-12-14 07:29:04 51°13.666 2°55.943 14.2078 0.02492 0.151741 -0.791624
2009-12-14 07:29:10 51°13.667 2°55.938 14.201 0.02492 0.151738 -0.7568
2009-12-14 07:29:16 51°13.669 2°55.931 14.1968 0.02492 0.151738 -0.7568
2009-12-14 07:29:21 51°13.67 2°55.926 14.2521 0.02492 0.151735 -0.791624
2009-12-14 07:29:27 51°13.671 2°55.918 14.2455 0.025126 0.153013 -0.791624
2009-12-14 07:29:32 51°13.673 2°55.912 14.2107 0.025229 0.15365 -0.791624
2009-12-14 07:29:37 51°13.674 2°55.905 14.2576 0.025229 0.153656 -0.791624
2009-12-14 07:29:42 51°13.675 2°55.897 14.2911 0.025229 0.153662 -0.7568
2009-12-14 07:29:47 51°13.677 2°55.89 14.3351 0.025229 0.153662 -0.7568
2009-12-14 07:29:52 51°13.678 2°55.882 14.3412 0.025229 0.153674 -0.7568
2009-12-14 07:29:57 51°13.68 2°55.874 14.3663 0.025331 0.154315 -0.7568
2009-12-14 07:30:02 51°13.682 2°55.866 14.3504 0.02564 0.156238 -0.7568
2009-12-14 07:30:07 51°13.684 2°55.859 14.3556 0.025434 0.154968 -0.7568
2009-12-14 07:30:12 51°13.686 2°55.851 14.3239 0.025229 0.153695 -0.791624
2009-12-14 07:30:17 51°13.687 2°55.843 14.3191 0.025229 0.153695 -0.791624
2009-12-14 07:30:22 51°13.689 2°55.836 14.3238 0.025229 0.153695 -0.7568
2009-12-14 07:30:27 51°13.691 2°55.828 14.3385 0.025434 0.154971 -0.7568
2009-12-14 07:30:32 51°13.692 2°55.82 14.3426 0.025434 0.15498 -0.7568
2009-12-14 07:30:37 51°13.694 2°55.812 14.3426 0.025537 0.155621 -0.7568
2009-12-14 07:30:42 51°13.695 2°55.805 14.3385 0.025537 0.155627 -0.7568
2009-12-14 07:30:47 51°13.696 2°55.798 14.3477 0.025537 0.155627 -0.7568
2009-12-14 07:30:52 51°13.697 2°55.791 14.3519 0.02564 0.156272 -0.7568
2009-12-14 07:30:57 51°13.697 2°55.784 14.3548 0.02564 0.156275 -0.7568
2009-12-14 07:31:02 51°13.698 2°55.778 14.3604 0.025537 0.15564 -0.7568
2009-12-14 07:31:07 51°13.698 2°55.771 14.36 0.025537 0.155637 -0.7568
2009-12-14 07:31:12 51°13.698 2°55.766 14.3573 0.025537 0.15564 -0.7568
2009-12-14 07:31:17 51°13.699 2°55.76 14.349 0.025537 0.15564 -0.7568
2009-12-14 07:31:22 51°13.699 2°55.755 14.381 0.025537 0.155637 -0.7568
2009-12-14 07:31:27 51°13.699 2°55.75 14.3799 0.025743 0.156917 -0.791624
2009-12-14 07:31:32 51°13.699 2°55.747 14.3642 0.02564 0.156281 -0.7568
2009-12-14 07:31:37 51°13.699 2°55.745 14.3663 0.025743 0.15692 -0.7568
2009-12-14 07:31:41 51°13.699 2°55.743 14.3581 0.02564 0.156287 -0.7568
2009-12-14 07:31:47 51°13.699 2°55.74 14.3528 0.02564 0.156287 -0.7568
2009-12-14 07:31:52 51°13.699 2°55.739 14.3524 0.025743 0.156926 -0.7568
2009-12-14 07:31:57 51°13.7 2°55.737 14.3583 0.025743 0.156932 -0.7568
2009-12-14 07:32:01 51°13.7 2°55.737 14.409 0.026052 0.158849 -0.791624
2009-12-14 07:32:07 51°13.701 2°55.737 14.4368 0.026258 0.16014 -0.7568
2009-12-14 07:32:12 51°13.702 2°55.737 14.4464 0.026258 0.160152 -0.7568
2009-12-14 07:32:17 51°13.703 2°55.739 14.4522 0.026258 0.160152 -0.7568
2009-12-14 07:32:21 51°13.704 2°55.74 14.457 0.026361 0.160798 -0.791624
2009-12-14 07:32:26 51°13.707 2°55.742 14.445 0.026361 0.160802 -0.791624
2009-12-14 07:32:31 51°13.709 2°55.744 14.3398 0.02564 0.15634 -0.7568
2009-12-14 07:32:36 51°13.711 2°55.745 14.1203 0.025331 0.154416 -0.7568
2009-12-14 07:32:41 51°13.713 2°55.746 14.1486 0.025229 0.153753 -0.7568
2009-12-14 07:32:45 51°13.714 2°55.746 14.1789 0.025229 0.153753 -0.7568
2009-12-14 07:32:50 51°13.715 2°55.746 14.2379 0.025331 0.154385 -0.7568
2009-12-14 07:32:56 51°13.715 2°55.746 14.3118 0.024817 0.151212 -0.791624
2009-12-14 07:33:01 51°13.714 2°55.745 14.296 0.025023 0.152478 -0.7568
2009-12-14 07:33:06 51°13.713 2°55.745 14.304 0.025331 0.154388 -0.7568
2009-12-14 07:33:11 51°13.712 2°55.744 14.2985 0.025434 0.155035 -0.7568
2009-12-14 07:33:16 51°13.71 2°55.743 14.2819 0.025434 0.155035 -0.7568
2009-12-14 07:33:21 51°13.708 2°55.743 14.2715 0.025126 0.153125 -0.7568
2009-12-14 07:33:27 51°13.705 2°55.742 14.3675 0.025229 0.153756 -0.7568
2009-12-14 07:33:32 51°13.703 2°55.741 14.3658 0.025537 0.155674 -0.791624
2009-12-14 07:33:37 51°13.701 2°55.74 14.4099 0.026052 0.158868 -0.791624
2009-12-14 07:33:42 51°13.7 2°55.74 14.4006 0.026052 0.15889 -0.791624
2009-12-14 07:33:47 51°13.7 2°55.739 14.4037 0.026052 0.15889 -0.791624
2009-12-14 07:33:52 51°13.701 2°55.738 14.4302 0.026258 0.160181 -0.791624
2009-12-14 07:33:57 51°13.703 2°55.737 14.4294 0.026463 0.161464 -0.791624
2009-12-14 07:34:02 51°13.705 2°55.735 14.4174 0.026566 0.162126 -0.791624
2009-12-14 07:34:07 51°13.709 2°55.732 14.3773 0.026258 0.160207 -0.7568
2009-12-14 07:34:12 51°13.713 2°55.728 14.381 0.025846 0.15764 -0.7568
2009-12-14 07:34:17 51°13.719 2°55.724 14.3411 0.025846 0.15764 -0.7568
2009-12-14 07:34:21 51°13.723 2°55.72 14.322 0.026052 0.158896 -0.7568
2009-12-14 07:34:26 51°13.73 2°55.715 14.2509 0.025743 0.156985 -0.7568
2009-12-14 07:34:32 51°13.738 2°55.708 14.18 0.025434 0.155066 -0.7568
2009-12-14 07:34:36 51°13.744 2°55.703 14.14 0.025331 0.154422 -0.791624
2009-12-14 07:34:41 51°13.752 2°55.697 14.1417 0.025331 0.154422 -0.791624
2009-12-14 07:34:45 51°13.758 2°55.692 14.1489 0.025331 0.154422 -0.791624
2009-12-14 07:34:51 51°13.767 2°55.683 14.1361 0.025023 0.152514 -0.7568
2009-12-14 07:34:55 51°13.774 2°55.678 14.1283 0.025023 0.152511 -0.791624
2009-12-14 07:35:00 51°13.782 2°55.671 14.1304 0.025023 0.152511 -0.791624
2009-12-14 07:35:05 51°13.791 2°55.664 14.144 0.025023 0.152514 -0.791624
2009-12-14 07:35:09 51°13.798 2°55.659 14.1697 0.025023 0.152526 -0.791624
2009-12-14 07:35:14 51°13.807 2°55.651 14.1747 0.025023 0.152526 -0.791624
2009-12-14 07:35:19 51°13.816 2°55.644 14.1811 0.02492 0.151891 -0.791624
2009-12-14 07:35:24 51°13.826 2°55.637 14.1706 0.02492 0.151891 -0.7568
2009-12-14 07:35:29 51°13.835 2°55.629 14.177 0.025023 0.152529 -0.791624
2009-12-14 07:35:33 51°13.843 2°55.623 14.1909 0.024817 0.151263 -0.7568
2009-12-14 07:35:38 51°13.853 2°55.616 14.1931 0.024714 0.150625 -0.7568
2009-12-14 07:35:44 51°13.865 2°55.606 14.1836 0.024714 0.150625 -0.7568
2009-12-14 07:35:49 51°13.875 2°55.598 14.1699 0.024611 0.149994 -0.791624
2009-12-14 07:35:53 51°13.884 2°55.592 14.1848 0.024714 0.150628 -0.7568
2009-12-14 07:35:58 51°13.894 2°55.584 14.2612 0.02492 0.151903 -0.7568
2009-12-14 07:36:04 51°13.906 2°55.575 14.2305 0.024817 0.151278 -0.791624
2009-12-14 07:36:09 51°13.917 2°55.567 14.2025 0.024714 0.150643 -0.791624
2009-12-14 07:36:13 51°13.925 2°55.56 14.1989 0.024714 0.150643 -0.791624
2009-12-14 07:36:19 51°13.938 2°55.551 14.1676 0.024714 0.150646 -0.791624
2009-12-14 07:36:24 51°13.949 2°55.542 14.1852 0.024714 0.15064 -0.7568
2009-12-14 07:36:29 51°13.959 2°55.534 14.1949 0.024714 0.150649 -0.7568
2009-12-14 07:36:33 51°13.968 2°55.527 14.2345 0.024714 0.150652 -0.7568
2009-12-14 07:36:39 51°13.981 2°55.517 14.1588 0.024508 0.149383 -0.791624
2009-12-14 07:36:44 51°13.992 2°55.508 14.1876 0.024508 0.149383 -0.791624
2009-12-14 07:36:49 51°14.003 2°55.499 14.1958 0.024508 0.149377 -0.791624
2009-12-14 07:36:53 51°14.012 2°55.493 14.2444 0.024817 0.151293 -0.7568
2009-12-14 07:36:59 51°14.026 2°55.483 14.2501 0.024714 0.150667 -0.7568
2009-12-14 07:37:04 51°14.037 2°55.474 14.1568 0.024199 0.147493 -0.7568
2009-12-14 07:37:08 51°14.046 2°55.466 14.1815 0.024611 0.150029 -0.791624
2009-12-14 07:37:14 51°14.06 2°55.456 14.2566 0.024611 0.150029 -0.791624
2009-12-14 07:37:18 51°14.069 2°55.449 14.2401 0.024405 0.148767 -0.791624
2009-12-14 07:37:24 51°14.083 2°55.437 14.2432 0.024817 0.151311 -0.791624
2009-12-14 07:37:29 51°14.095 2°55.428 14.3058 0.024611 0.15005 -0.7568
2009-12-14 07:37:33 51°14.104 2°55.421 14.1731 0.024199 0.147516 -0.791624
2009-12-14 07:37:39 51°14.118 2°55.41 14.2702 0.02492 0.151967 -0.791624
2009-12-14 07:37:44 51°14.13 2°55.4 14.2714 0.02492 0.151967 -0.791624
2009-12-14 07:37:48 51°14.139 2°55.392 14.2478 0.024611 0.150065 -0.791624
2009-12-14 07:37:53 51°14.151 2°55.382 14.2867 0.024714 0.150703 -0.791624
2009-12-14 07:37:59 51°14.164 2°55.369 14.2931 0.024714 0.150709 -0.791624
2009-12-14 07:38:04 51°14.175 2°55.358 14.2527 0.024817 0.151347 -0.7568
2009-12-14 07:38:09 51°14.186 2°55.347 14.2989 0.024714 0.150718 -0.791624
2009-12-14 07:38:13 51°14.195 2°55.337 14.2625 0.024714 0.150718 -0.791624
2009-12-14 07:38:18 51°14.206 2°55.324 14.1906 0.024817 0.151362 -0.791624
2009-12-14 07:38:24 51°14.218 2°55.308 14.2744 0.024817 0.151365 -0.791624
2009-12-14 07:38:29 51°14.228 2°55.294 14.2284 0.024714 0.150733 -0.791624
2009-12-14 07:38:33 51°14.236 2°55.282 14.2516 0.02492 0.152009 -0.7568
2009-12-14 07:38:38 51°14.246 2°55.268 14.2641 0.024817 0.151379 -0.7568
2009-12-14 07:38:44 51°14.258 2°55.249 14.2272 0.024817 0.151379 -0.7568
2009-12-14 07:38:49 51°14.268 2°55.233 14.1805 0.02492 0.152018 -0.7568
2009-12-14 07:38:53 51°14.275 2°55.22 14.1906 0.024508 0.149475 -0.791624
2009-12-14 07:38:59 51°14.285 2°55.199 14.1746 0.024611 0.15011 -0.791624
2009-12-14 07:39:04 51°14.294 2°55.181 14.2098 0.024714 0.150747 -0.791624
2009-12-14 07:39:08 51°14.301 2°55.167 14.0833 0.024199 0.14756 -0.791624
2009-12-14 07:39:13 51°14.31 2°55.149 14.1888 0.024199 0.14756 -0.791624
2009-12-14 07:39:19 51°14.32 2°55.127 14.2356 0.024714 0.150739 -0.7568
2009-12-14 07:39:24 51°14.329 2°55.108 14.0496 0.024611 0.150115 -0.791624
2009-12-14 07:39:29 51°14.337 2°55.089 14.1552 0.024508 0.149484 -0.7568
2009-12-14 07:39:33 51°14.344 2°55.074 14.2131 0.024714 0.150792 -0.7568
2009-12-14 07:39:39 51°14.355 2°55.051 14.0911 0.024199 0.147621 -0.791624
2009-12-14 07:39:44 51°14.363 2°55.032 13.9683 0.024199 0.147621 -0.791624
2009-12-14 07:39:49 51°14.372 2°55.011 14.0669 0.024097 0.146963 -0.791624
2009-12-14 07:39:53 51°14.379 2°54.996 14.0202 0.024199 0.147551 -0.7568
2009-12-14 07:39:59 51°14.391 2°54.975 14.1244 0.024508 0.149493 -0.791624
2009-12-14 07:40:04 51°14.402 2°54.958 14.0545 0.024405 0.148881 -0.7568
2009-12-14 07:40:09 51°14.412 2°54.941 14.1288 0.024302 0.148279 -0.791624
2009-12-14 07:40:13 51°14.421 2°54.928 14.1401 0.024302 0.148279 -0.791624
2009-12-14 07:40:19 51°14.435 2°54.909 14.1621 0.024405 0.148981 -0.791624
2009-12-14 07:40:24 51°14.446 2°54.892 13.9559 0.024199 0.147711 -0.791624
2009-12-14 07:40:29 51°14.457 2°54.876 14.0751 0.024199 0.147714 -0.7568
2009-12-14 07:40:33 51°14.466 2°54.863 14.0714 0.024199 0.14772 -0.7568
2009-12-14 07:40:38 51°14.479 2°54.848 14.1057 0.024302 0.148378 -0.7568
2009-12-14 07:40:44 51°14.494 2°54.831 14.1559 0.024302 0.148378 -0.7568
2009-12-14 07:40:49 51°14.507 2°54.818 14.0779 0.024508 0.149809 -0.7568
2009-12-14 07:40:53 51°14.517 2°54.806 14.0959 0.024097 0.147379 -0.791624
2009-12-14 07:40:58 51°14.529 2°54.792 14.123 0.0242 0.148013 -0.7568
2009-12-14 07:41:04 51°14.544 2°54.775 14.1377 0.0242 0.148048 -0.791624
2009-12-14 07:41:09 51°14.557 2°54.761 14.108 0.024097 0.147402 -0.7568
2009-12-14 07:41:14 51°14.57 2°54.747 14.1086 0.024097 0.147402 -0.7568
2009-12-14 07:41:18 51°14.58 2°54.735 14.1208 0.0242 0.148045 -0.791624
2009-12-14 07:41:24 51°14.595 2°54.718 14.1011 0.0242 0.148083 -0.7568
2009-12-14 07:41:29 51°14.608 2°54.704 14.0782 0.024302 0.148773 -0.791624
2009-12-14 07:41:34 51°14.621 2°54.689 14.1114 0.024097 0.14754 -0.7568
2009-12-14 07:41:38 51°14.631 2°54.677 14.0555 0.024405 0.149464 -0.791624
2009-12-14 07:41:44 51°14.646 2°54.66 14.0995 0.024405 0.149464 -0.791624
2009-12-14 07:41:49 51°14.659 2°54.646 14.0592 0.024097 0.147528 -0.791624
2009-12-14 07:41:53 51°14.669 2°54.634 14.0991 0.024097 0.147525 -0.791624
2009-12-14 07:41:59 51°14.685 2°54.618 14.0815 0.024302 0.148841 -0.791624
2009-12-14 07:42:04 51°14.698 2°54.605 14.1132 0.0242 0.148203 -0.791624
2009-12-14 07:42:09 51°14.711 2°54.591 14.101 0.024097 0.147569 -0.7568
2009-12-14 07:42:13 51°14.721 2°54.581 14.0868 0.024097 0.147569 -0.7568
2009-12-14 07:42:19 51°14.737 2°54.565 14.1109 0.024097 0.147572 -0.791624
2009-12-14 07:42:24 51°14.75 2°54.552 14.075 0.023994 0.146941 -0.7568
2009-12-14 07:42:29 51°14.764 2°54.539 14.1264 0.0242 0.148209 -0.7568
2009-12-14 07:42:33 51°14.775 2°54.529 14.0999 0.0242 0.148201 -0.7568
2009-12-14 07:42:39 51°14.79 2°54.514 14.0869 0.024097 0.147581 -0.791624
2009-12-14 07:42:44 51°14.804 2°54.502 14.1031 0.024097 0.147581 -0.791624
2009-12-14 07:42:49 51°14.817 2°54.49 14.1076 0.023994 0.146946 -0.7568
2009-12-14 07:42:53 51°14.828 2°54.48 14.066 0.023994 0.146941 -0.791624
2009-12-14 07:42:58 51°14.842 2°54.468 14.1371 0.024097 0.147566 -0.791624
2009-12-14 07:43:04 51°14.858 2°54.454 14.1243 0.023994 0.146944 -0.791624
2009-12-14 07:43:09 51°14.872 2°54.442 14.1306 0.023994 0.146938 -0.7568
2009-12-14 07:43:13 51°14.882 2°54.432 14.0939 0.023994 0.146938 -0.7568
2009-12-14 07:43:19 51°14.898 2°54.418 14.108 0.0242 0.148201 -0.791624
2009-12-14 07:43:24 51°14.912 2°54.406 14.0668 0.024097 0.147616 -0.791624
2009-12-14 07:43:29 51°14.925 2°54.394 14.0856 0.024097 0.147683 -0.7568
2009-12-14 07:43:33 51°14.936 2°54.384 14.1223 0.024097 0.147725 -0.791624
2009-12-14 07:43:39 51°14.952 2°54.37 14.0871 0.024097 0.147757 -0.7568
2009-12-14 07:43:44 51°14.965 2°54.358 14.0677 0.024097 0.147757 -0.7568
2009-12-14 07:43:48 51°14.976 2°54.348 14.1137 0.0242 0.148395 -0.791624
2009-12-14 07:43:53 51°14.989 2°54.336 14.1181 0.0242 0.148377 -0.7568
2009-12-14 07:43:59 51°15.005 2°54.321 14.1157 0.0242 0.148407 -0.791624
2009-12-14 07:44:04 51°15.018 2°54.309 14.0814 0.024097 0.147801 -0.791624
2009-12-14 07:44:08 51°15.028 2°54.299 14.1012 0.024302 0.14906 -0.791624
2009-12-14 07:44:13 51°15.041 2°54.286 14.0724 0.024302 0.14906 -0.791624
2009-12-14 07:44:18 51°15.054 2°54.274 14.1015 0.0242 0.148451 -0.791624
2009-12-14 07:44:24 51°15.07 2°54.26 14.1046 0.024097 0.147892 -0.7568
2009-12-14 07:44:29 51°15.083 2°54.248 14.1019 0.0242 0.148567 -0.791624
2009-12-14 07:44:33 51°15.093 2°54.238 14.0758 0.023994 0.147274 -0.7568
2009-12-14 07:44:39 51°15.109 2°54.223 14.1006 0.024302 0.14917 -0.7568
2009-12-14 07:44:44 51°15.123 2°54.212 14.1157 0.024302 0.14917 -0.7568
2009-12-14 07:44:48 51°15.133 2°54.202 14.063 0.024097 0.14793 -0.7568
2009-12-14 07:44:53 51°15.147 2°54.19 14.0626 0.0242 0.148599 -0.791624
2009-12-14 07:44:59 51°15.162 2°54.176 14.0757 0.0242 0.148629 -0.7568
2009-12-14 07:45:04 51°15.176 2°54.164 14.071 0.024302 0.14931 -0.791624
2009-12-14 07:45:09 51°15.189 2°54.152 14.0753 0.024302 0.149337 -0.791624
2009-12-14 07:45:13 51°15.2 2°54.143 14.1316 0.024302 0.149337 -0.791624
2009-12-14 07:45:19 51°15.216 2°54.128 14.075 0.0242 0.148664 -0.791624
2009-12-14 07:45:24 51°15.229 2°54.116 14.1 0.024097 0.148045 -0.791624
2009-12-14 07:45:29 51°15.242 2°54.104 14.0544 0.0242 0.148706 -0.7568
2009-12-14 07:45:34 51°15.255 2°54.092 14.0637 0.0242 0.148718 -0.7568
2009-12-14 07:45:38 51°15.266 2°54.082 14.1113 0.023994 0.147424 -0.791624
2009-12-14 07:45:44 51°15.282 2°54.067 14.0713 0.023994 0.147424 -0.791624
2009-12-14 07:45:49 51°15.295 2°54.056 14.0655 0.0242 0.148712 -0.7568
2009-12-14 07:45:54 51°15.308 2°54.044 14.0811 0.0242 0.148706 -0.791624
2009-12-14 07:45:58 51°15.319 2°54.034 14.1096 0.024097 0.148143 -0.7568
2009-12-14 07:46:04 51°15.335 2°54.02 14.0244 0.024097 0.148205 -0.791624
2009-12-14 07:46:09 51°15.348 2°54.008 14.0851 0.024097 0.148294 -0.7568
2009-12-14 07:46:13 51°15.359 2°53.998 14.0801 0.024097 0.148294 -0.7568
2009-12-14 07:46:19 51°15.375 2°53.984 14.0934 0.0242 0.14898 -0.7568
2009-12-14 07:46:24 51°15.388 2°53.972 14.116 0.024097 0.148344 -0.7568
2009-12-14 07:46:28 51°15.399 2°53.962 14.0689 0.024097 0.14835 -0.791624
2009-12-14 07:46:33 51°15.412 2°53.95 14.1099 0.023994 0.147662 -0.791624
2009-12-14 07:46:39 51°15.428 2°53.936 14.0364 0.0242 0.148923 -0.7568
2009-12-14 07:46:44 51°15.441 2°53.924 14.0556 0.0242 0.148923 -0.7568
2009-12-14 07:46:49 51°15.455 2°53.912 14.088 0.024097 0.148232 -0.7568
2009-12-14 07:46:53 51°15.465 2°53.902 14.0317 0.023994 0.147577 -0.791624
2009-12-14 07:46:58 51°15.478 2°53.889 14.0996 0.024097 0.148244 -0.791624
2009-12-14 07:47:04 51°15.494 2°53.875 14.0294 0.023994 0.14763 -0.791624
2009-12-14 07:47:08 51°15.505 2°53.865 14.0647 0.024097 0.148267 -0.7568
2009-12-14 07:47:13 51°15.518 2°53.853 14.0917 0.024097 0.148267 -0.7568
2009-12-14 07:47:19 51°15.534 2°53.839 14.0657 0.023994 0.147641 -0.7568
2009-12-14 07:47:24 51°15.547 2°53.827 14.0681 0.023891 0.147007 -0.7568
2009-12-14 07:47:29 51°15.561 2°53.815 14.0614 0.023994 0.14765 -0.791624
2009-12-14 07:47:33 51°15.571 2°53.805 14.11 0.023891 0.147022 -0.791624
2009-12-14 07:47:39 51°15.588 2°53.791 14.0448 0.023891 0.147039 -0.791624
2009-12-14 07:47:44 51°15.601 2°53.779 14.0705 0.023891 0.147039 -0.791624
2009-12-14 07:47:49 51°15.614 2°53.767 14.1005 0.023891 0.147048 -0.791624
2009-12-14 07:47:53 51°15.625 2°53.757 14.0669 0.023994 0.147701 -0.791624
2009-12-14 07:47:59 51°15.641 2°53.743 14.0793 0.0242 0.149 -0.791624
2009-12-14 07:48:04 51°15.654 2°53.731 14.1068 0.023994 0.14773 -0.791624
2009-12-14 07:48:08 51°15.665 2°53.722 14.0202 0.0242 0.148988 -0.7568
2009-12-14 07:48:14 51°15.681 2°53.707 14.093 0.0242 0.148988 -0.7568
2009-12-14 07:48:18 51°15.691 2°53.698 14.0855 0.024405 0.150217 -0.7568
2009-12-14 07:48:24 51°15.708 2°53.684 14.0885 0.024097 0.148282 -0.791624
2009-12-14 07:48:29 51°15.721 2°53.672 14.1024 0.024097 0.148291 -0.791624
2009-12-14 07:48:33 51°15.732 2°53.663 14.0275 0.0242 0.14903 -0.791624
2009-12-14 07:48:39 51°15.748 2°53.649 14.0783 0.023994 0.147789 -0.791624
2009-12-14 07:48:44 51°15.761 2°53.637 14.0746 0.023994 0.147789 -0.791624
2009-12-14 07:48:48 51°15.772 2°53.628 14.0424 0.023994 0.147751 -0.791624
2009-12-14 07:48:53 51°15.785 2°53.616 14.0432 0.023994 0.147807 -0.791624
2009-12-14 07:48:59 51°15.802 2°53.602 14.0796 0.0242 0.149135 -0.791624
2009-12-14 07:49:04 51°15.815 2°53.591 14.0607 0.023994 0.147789 -0.7568
2009-12-14 07:49:09 51°15.828 2°53.579 14.0664 0.024097 0.148463 -0.791624
2009-12-14 07:49:13 51°15.839 2°53.57 14.0847 0.024097 0.148463 -0.791624
2009-12-14 07:49:18 51°15.853 2°53.559 13.9748 0.024097 0.148514 -0.7568
2009-12-14 07:49:24 51°15.869 2°53.544 14.0757 0.0242 0.149144 -0.7568
2009-12-14 07:49:29 51°15.882 2°53.533 14.0066 0.0242 0.149075 -0.791624
2009-12-14 07:49:33 51°15.893 2°53.523 14.0341 0.0242 0.149189 -0.7568
2009-12-14 07:49:38 51°15.906 2°53.511 14.03 0.024097 0.148576 -0.791624
2009-12-14 07:49:44 51°15.922 2°53.497 14.0691 0.024097 0.148576 -0.791624
2009-12-14 07:49:49 51°15.935 2°53.486 14.0182 0.023994 0.148002 -0.791624
2009-12-14 07:49:53 51°15.946 2°53.476 14.0518 0.024097 0.148657 -0.791624
2009-12-14 07:49:59 51°15.962 2°53.461 14.0618 0.023994 0.147997 -0.791624
2009-12-14 07:50:04 51°15.975 2°53.449 14.0483 0.023891 0.147328 -0.791624
2009-12-14 07:50:09 51°15.988 2°53.438 14.054 0.023891 0.147319 -0.791624
2009-12-14 07:50:13 51°15.999 2°53.428 14.0437 0.023891 0.147319 -0.791624
2009-12-14 07:50:18 51°16.012 2°53.416 14.0473 0.023994 0.147991 -0.791624
2009-12-14 07:50:24 51°16.029 2°53.401 14.0682 0.023891 0.147375 -0.791624
2009-12-14 07:50:29 51°16.042 2°53.389 14.0338 0.024097 0.148648 -0.7568
2009-12-14 07:50:33 51°16.053 2°53.379 14.0511 0.023994 0.14797 -0.7568
2009-12-14 07:50:38 51°16.066 2°53.367 14.0564 0.023891 0.147301 -0.791624
2009-12-14 07:50:44 51°16.082 2°53.352 14.0389 0.023891 0.147301 -0.791624
2009-12-14 07:50:48 51°16.092 2°53.343 14.058 0.023994 0.147955 -0.791624
2009-12-14 07:50:53 51°16.106 2°53.331 14.0598 0.023891 0.147345 -0.791624
2009-12-14 07:50:58 51°16.119 2°53.319 14.0476 0.023891 0.147372 -0.791624
2009-12-14 07:51:04 51°16.135 2°53.304 14.0539 0.023891 0.147407 -0.791624
2009-12-14 07:51:08 51°16.146 2°53.295 14.0734 0.023891 0.147452 -0.791624
2009-12-14 07:51:13 51°16.159 2°53.283 14.0002 0.023891 0.147452 -0.791624
2009-12-14 07:51:19 51°16.175 2°53.268 14.0487 0.023891 0.147449 -0.7568
2009-12-14 07:51:24 51°16.188 2°53.257 14.0618 0.023994 0.148035 -0.791624
2009-12-14 07:51:29 51°16.202 2°53.245 14.0188 0.023994 0.147991 -0.791624
2009-12-14 07:51:33 51°16.212 2°53.235 14.0592 0.023994 0.147999 -0.791624
2009-12-14 07:51:38 51°16.226 2°53.224 14.0513 0.023891 0.147366 -0.791624
2009-12-14 07:51:44 51°16.242 2°53.21 14.0413 0.023891 0.147366 -0.791624
2009-12-14 07:51:49 51°16.255 2°53.198 14.0678 0.023891 0.147387 -0.791624
2009-12-14 07:51:53 51°16.266 2°53.189 14.039 0.024097 0.148705 -0.791624
2009-12-14 07:51:58 51°16.279 2°53.177 14.0564 0.023891 0.14741 -0.791624
2009-12-14 07:52:04 51°16.295 2°53.163 14.0752 0.023891 0.147431 -0.7568
2009-12-14 07:52:09 51°16.309 2°53.152 14.046 0.023891 0.147458 -0.791624
2009-12-14 07:52:13 51°16.32 2°53.143 14.0683 0.023891 0.147458 -0.791624
2009-12-14 07:52:18 51°16.333 2°53.131 14.0809 0.023891 0.147393 -0.791624
2009-12-14 07:52:24 51°16.349 2°53.117 14.0461 0.023891 0.147369 -0.7568
2009-12-14 07:52:29 51°16.362 2°53.106 14.036 0.023891 0.147431 -0.791624
2009-12-14 07:52:34 51°16.376 2°53.094 14.05 0.024097 0.148749 -0.7568
2009-12-14 07:52:38 51°16.387 2°53.085 14.0484 0.023891 0.147481 -0.791624
2009-12-14 07:52:44 51°16.403 2°53.071 14.0359 0.023891 0.147481 -0.791624
2009-12-14 07:52:48 51°16.413 2°53.061 14.0334 0.0242 0.149359 -0.791624
2009-12-14 07:52:53 51°16.427 2°53.05 14.0681 0.023994 0.148041 -0.791624
2009-12-14 07:52:59 51°16.443 2°53.036 14.0181 0.023994 0.148023 -0.791624
2009-12-14 07:53:04 51°16.456 2°53.025 14.0657 0.023994 0.148041 -0.791624
2009-12-14 07:53:09 51°16.47 2°53.013 14.0576 0.023994 0.148056 -0.791624
2009-12-14 07:53:13 51°16.48 2°53.004 14.0729 0.023994 0.148056 -0.791624
2009-12-14 07:53:18 51°16.494 2°52.993 14.0599 0.023994 0.148109 -0.7568
2009-12-14 07:53:24 51°16.51 2°52.98 14.0543 0.023891 0.147487 -0.791624
2009-12-14 07:53:29 51°16.524 2°52.968 14.0468 0.023788 0.146895 -0.7568
2009-12-14 07:53:33 51°16.534 2°52.959 14.05 0.023891 0.14757 -0.791624
2009-12-14 07:53:39 51°16.551 2°52.946 14.054 0.023891 0.147547 -0.791624
2009-12-14 07:53:44 51°16.564 2°52.934 14.0802 0.023891 0.147547 -0.791624
2009-12-14 07:53:48 51°16.575 2°52.924 14.064 0.023994 0.148175 -0.791624
2009-12-14 07:53:53 51°16.588 2°52.913 14.0259 0.023891 0.147473 -0.791624
2009-12-14 07:53:59 51°16.604 2°52.899 14.0118 0.023891 0.147449 -0.791624
2009-12-14 07:54:04 51°16.617 2°52.887 14.0578 0.023994 0.148083 -0.791624
2009-12-14 07:54:09 51°16.63 2°52.875 14.0604 0.023891 0.14747 -0.791624
2009-12-14 07:54:13 51°16.641 2°52.866 14.078 0.023891 0.14747 -0.791624
2009-12-14 07:54:18 51°16.654 2°52.855 14.0688 0.023994 0.148154 -0.791624
2009-12-14 07:54:24 51°16.67 2°52.842 14.0405 0.023891 0.147517 -0.791624
2009-12-14 07:54:29 51°16.683 2°52.83 14.0571 0.023891 0.147529 -0.791624
2009-12-14 07:54:33 51°16.694 2°52.821 14.0378 0.023994 0.14819 -0.791624
2009-12-14 07:54:38 51°16.707 2°52.81 14.0907 0.023891 0.147582 -0.7568
2009-12-14 07:54:44 51°16.723 2°52.796 14.029 0.023891 0.147582 -0.7568
2009-12-14 07:54:49 51°16.736 2°52.785 14.0824 0.024097 0.148845 -0.791624
2009-12-14 07:54:54 51°16.749 2°52.773 14.0523 0.024097 0.148833 -0.791624
2009-12-14 07:54:58 51°16.76 2°52.765 14.0697 0.023994 0.148217 -0.7568
2009-12-14 07:55:04 51°16.775 2°52.751 14.0549 0.023994 0.14824 -0.791624
2009-12-14 07:55:08 51°16.786 2°52.742 14.024 0.023891 0.147555 -0.791624
2009-12-14 07:55:14 51°16.801 2°52.728 14.0594 0.023891 0.147555 -0.791624
2009-12-14 07:55:19 51°16.814 2°52.717 14.0558 0.024097 0.148881 -0.7568
2009-12-14 07:55:24 51°16.827 2°52.706 14.0622 0.023891 0.147606 -0.791624
2009-12-14 07:55:28 51°16.838 2°52.697 14.0646 0.023891 0.147656 -0.791624
2009-12-14 07:55:33 51°16.851 2°52.686 14.0744 0.023891 0.147689 -0.7568
2009-12-14 07:55:39 51°16.866 2°52.673 14.0638 0.023891 0.147745 -0.791624
2009-12-14 07:55:44 51°16.879 2°52.662 14.0387 0.023891 0.147745 -0.791624
2009-12-14 07:55:49 51°16.892 2°52.65 14.016 0.023994 0.14833 -0.791624
2009-12-14 07:55:53 51°16.903 2°52.642 14.046 0.023891 0.147656 -0.791624
2009-12-14 07:55:59 51°16.919 2°52.629 14.0918 0.024097 0.148923 -0.791624
2009-12-14 07:56:04 51°16.932 2°52.617 13.9939 0.023994 0.148297 -0.791624
2009-12-14 07:56:08 51°16.943 2°52.609 14.0753 0.024097 0.148971 -0.791624
2009-12-14 07:56:13 51°16.955 2°52.597 14.0752 0.024097 0.148971 -0.791624
2009-12-14 07:56:18 51°16.968 2°52.586 14.034 0.024097 0.149004 -0.791624
2009-12-14 07:56:24 51°16.984 2°52.572 14.0381 0.0242 0.149645 -0.791624
2009-12-14 07:56:28 51°16.994 2°52.563 14.0616 0.023891 0.147704 -0.791624
2009-12-14 07:56:34 51°17.01 2°52.55 14.0692 0.023891 0.147736 -0.791624
2009-12-14 07:56:38 51°17.02 2°52.542 14.028 0.023891 0.147775 -0.791624
2009-12-14 07:56:44 51°17.036 2°52.528 14.0464 0.023891 0.147775 -0.791624
2009-12-14 07:56:49 51°17.049 2°52.517 14.0536 0.023788 0.147131 -0.791624
2009-12-14 07:56:53 51°17.059 2°52.508 14.0641 0.023891 0.14776 -0.791624
2009-12-14 07:56:58 51°17.072 2°52.496 14.0213 0.023994 0.148339 -0.791624
2009-12-14 07:57:04 51°17.088 2°52.483 14.0636 0.023891 0.147698 -0.791624
2009-12-14 07:57:09 51°17.101 2°52.472 14.0471 0.023994 0.148384 -0.791624
2009-12-14 07:57:14 51°17.114 2°52.461 14.0734 0.023994 0.148384 -0.791624
2009-12-14 07:57:18 51°17.124 2°52.452 14.0286 0.023891 0.147736 -0.791624
2009-12-14 07:57:24 51°17.14 2°52.438 14.0704 0.024097 0.149001 -0.791624
2009-12-14 07:57:28 51°17.151 2°52.429 14.0082 0.023891 0.147704 -0.791624
2009-12-14 07:57:33 51°17.163 2°52.418 14.0682 0.023891 0.147731 -0.7568
2009-12-14 07:57:39 51°17.179 2°52.404 14.0559 0.023994 0.148425 -0.791624
2009-12-14 07:57:44 51°17.192 2°52.393 14.0609 0.023994 0.148425 -0.791624
2009-12-14 07:57:48 51°17.202 2°52.383 14.0353 0.023788 0.147164 -0.791624
2009-12-14 07:57:53 51°17.215 2°52.372 14.0604 0.023891 0.147808 -0.791624
2009-12-14 07:57:59 51°17.231 2°52.358 14.0411 0.023788 0.147122 -0.791624
2009-12-14 07:58:04 51°17.244 2°52.347 14.0326 0.023891 0.147808 -0.791624
2009-12-14 07:58:09 51°17.257 2°52.335 14.0523 0.023891 0.147769 -0.791624
2009-12-14 07:58:13 51°17.267 2°52.326 14.0512 0.023891 0.147769 -0.791624
2009-12-14 07:58:19 51°17.283 2°52.313 14.0302 0.023788 0.147101 -0.791624
2009-12-14 07:58:24 51°17.296 2°52.301 14.0736 0.023994 0.148413 -0.791624
2009-12-14 07:58:28 51°17.306 2°52.292 14.0496 0.023994 0.14844 -0.791624
2009-12-14 07:58:33 51°17.319 2°52.281 14.0303 0.023994 0.148422 -0.791624
2009-12-14 07:58:38 51°17.332 2°52.27 14.0631 0.023891 0.147805 -0.7568
2009-12-14 07:58:44 51°17.348 2°52.256 14.0367 0.023891 0.147805 -0.7568
2009-12-14 07:58:48 51°17.358 2°52.247 14.0596 0.023994 0.148482 -0.791624
2009-12-14 07:58:53 51°17.371 2°52.236 14.0568 0.023891 0.147853 -0.791624
2009-12-14 07:58:58 51°17.384 2°52.224 14.0554 0.023788 0.147226 -0.791624
2009-12-14 07:59:04 51°17.4 2°52.211 14.0718 0.023685 0.146546 -0.791624
2009-12-14 07:59:09 51°17.413 2°52.199 14.0402 0.023788 0.147196 -0.791624
2009-12-14 07:59:13 51°17.424 2°52.19 14.04 0.023788 0.147196 -0.791624
2009-12-14 07:59:19 51°17.439 2°52.176 14.0427 0.023685 0.146564 -0.791624
2009-12-14 07:59:24 51°17.453 2°52.165 14.0846 0.023788 0.147235 -0.791624
2009-12-14 07:59:28 51°17.463 2°52.156 14.0286 0.023891 0.147924 -0.791624
2009-12-14 07:59:33 51°17.476 2°52.145 14.0592 0.023788 0.147258 -0.791624
2009-12-14 07:59:39 51°17.492 2°52.132 14.0345 0.023994 0.148485 -0.791624
2009-12-14 07:59:44 51°17.505 2°52.121 14.0113 0.023994 0.148485 -0.791624
2009-12-14 07:59:48 51°17.516 2°52.113 14.0711 0.023891 0.147882 -0.791624
2009-12-14 07:59:53 51°17.529 2°52.104 14.0445 0.023994 0.148536 -0.791624
2009-12-14 07:59:59 51°17.546 2°52.094 14.0718 0.023891 0.147906 -0.791624
2009-12-14 08:00:04 51°17.559 2°52.085 14.0777 0.023891 0.147915 -0.791624
2009-12-14 08:00:08 51°17.57 2°52.079 14.0363 0.023788 0.147279 -0.791624
2009-12-14 08:00:13 51°17.584 2°52.072 14.0321 0.023788 0.147279 -0.791624
2009-12-14 08:00:19 51°17.601 2°52.063 14.0427 0.023891 0.147939 -0.791624
2009-12-14 08:00:24 51°17.615 2°52.058 14.0446 0.023788 0.147318 -0.791624
2009-12-14 08:00:28 51°17.626 2°52.054 14.0411 0.023788 0.1473 -0.791624
2009-12-14 08:00:33 51°17.64 2°52.05 14.084 0.023788 0.147321 -0.791624
2009-12-14 08:00:38 51°17.654 2°52.045 14.0667 0.023685 0.146693 -0.791624
2009-12-14 08:00:44 51°17.671 2°52.041 14.0725 0.023685 0.146693 -0.791624
2009-12-14 08:00:49 51°17.685 2°52.039 14.0758 0.023685 0.146699 -0.791624
2009-12-14 08:00:53 51°17.697 2°52.036 14.0796 0.023685 0.146717 -0.791624
2009-12-14 08:00:58 51°17.711 2°52.035 14.044 0.023891 0.147972 -0.791624
2009-12-14 08:01:04 51°17.729 2°52.032 14.0871 0.023685 0.146652 -0.7568
2009-12-14 08:01:09 51°17.743 2°52.029 14.0464 0.023685 0.146655 -0.791624
2009-12-14 08:01:14 51°17.758 2°52.027 14.0794 0.023685 0.146655 -0.791624
2009-12-14 08:01:18 51°17.769 2°52.025 14.0881 0.023788 0.147303 -0.791624
2009-12-14 08:01:24 51°17.787 2°52.022 14.0736 0.023685 0.146679 -0.791624
2009-12-14 08:01:28 51°17.798 2°52.02 14.0923 0.023685 0.146655 -0.7568
2009-12-14 08:01:33 51°17.813 2°52.019 14.0727 0.023685 0.146693 -0.791624
2009-12-14 08:01:38 51°17.827 2°52.017 14.0603 0.023685 0.146717 -0.791624
2009-12-14 08:01:44 51°17.844 2°52.014 14.0903 0.023685 0.146717 -0.791624
2009-12-14 08:01:48 51°17.856 2°52.013 14.0778 0.023685 0.146723 -0.791624
2009-12-14 08:01:54 51°17.873 2°52.01 14.1043 0.023685 0.146747 -0.791624
2009-12-14 08:01:58 51°17.885 2°52.009 14.0758 0.023891 0.148055 -0.791624
2009-12-14 08:02:04 51°17.902 2°52.007 14.0537 0.023685 0.146776 -0.791624
2009-12-14 08:02:08 51°17.914 2°52.005 14.091 0.023788 0.147344 -0.791624
2009-12-14 08:02:13 51°17.928 2°52.003 14.0827 0.023788 0.147344 -0.791624
2009-12-14 08:02:19 51°17.946 2°52 14.0513 0.023788 0.147324 -0.791624
2009-12-14 08:02:24 51°17.96 2°51.998 14.0937 0.023891 0.147975 -0.791624
2009-12-14 08:02:28 51°17.972 2°51.995 14.0937 0.023891 0.147981 -0.791624
2009-12-14 08:02:33 51°17.986 2°51.993 14.0478 0.023788 0.147321 -0.791624
2009-12-14 08:02:39 51°18.004 2°51.99 14.0968 0.023891 0.147987 -0.791624
2009-12-14 08:02:44 51°18.018 2°51.987 14.0669 0.023891 0.147987 -0.791624
2009-12-14 08:02:48 51°18.03 2°51.986 14.0949 0.023891 0.148043 -0.791624
2009-12-14 08:02:53 51°18.044 2°51.983 14.061 0.023788 0.14741 -0.791624
2009-12-14 08:02:58 51°18.058 2°51.981 14.0821 0.023685 0.146818 -0.791624
2009-12-14 08:03:04 51°18.076 2°51.978 14.0694 0.023685 0.146824 -0.791624
2009-12-14 08:03:09 51°18.09 2°51.975 14.0909 0.023685 0.146844 -0.791624
2009-12-14 08:03:13 51°18.102 2°51.974 14.0825 0.023685 0.146844 -0.791624
2009-12-14 08:03:18 51°18.117 2°51.971 14.0937 0.023685 0.146862 -0.791624
2009-12-14 08:03:24 51°18.134 2°51.968 14.0601 0.023685 0.146904 -0.791624
2009-12-14 08:03:29 51°18.149 2°51.965 14.1108 0.023891 0.148202 -0.791624
2009-12-14 08:03:34 51°18.163 2°51.963 14.0696 0.023788 0.147493 -0.791624
2009-12-14 08:03:38 51°18.175 2°51.961 14.0945 0.023891 0.14813 -0.791624
2009-12-14 08:03:44 51°18.192 2°51.957 14.0823 0.023891 0.14813 -0.791624
2009-12-14 08:03:48 51°18.204 2°51.954 14.0974 0.023788 0.147431 -0.791624
2009-12-14 08:03:53 51°18.218 2°51.952 14.0931 0.023685 0.146853 -0.791624
2009-12-14 08:03:58 51°18.233 2°51.949 14.0992 0.023685 0.146895 -0.791624
2009-12-14 08:04:04 51°18.251 2°51.946 14.0907 0.023685 0.146927 -0.791624
2009-12-14 08:04:08 51°18.262 2°51.944 14.0841 0.023685 0.146939 -0.791624
2009-12-14 08:04:14 51°18.28 2°51.94 14.1007 0.023685 0.146939 -0.791624
2009-12-14 08:04:18 51°18.291 2°51.938 14.0821 0.023788 0.147547 -0.791624
2009-12-14 08:04:24 51°18.309 2°51.935 14.102 0.023582 0.146172 -0.791624
2009-12-14 08:04:28 51°18.321 2°51.932 14.1048 0.023788 0.147463 -0.791624
2009-12-14 08:04:33 51°18.335 2°51.93 14.0967 0.023685 0.146836 -0.791624
2009-12-14 08:04:39 51°18.353 2°51.927 14.1067 0.023685 0.146841 -0.791624
2009-12-14 08:04:44 51°18.367 2°51.924 14.064 0.023685 0.146841 -0.791624
2009-12-14 08:04:48 51°18.379 2°51.921 14.0626 0.023788 0.147514 -0.791624
2009-12-14 08:04:53 51°18.394 2°51.918 14.1027 0.023685 0.146895 -0.791624
2009-12-14 08:04:57 51°18.405 2°51.916 14.0824 0.023685 0.146898 -0.791624
2009-12-14 08:05:04 51°18.426 2°51.912 14.1154 0.023582 0.146234 -0.7568
2009-12-14 08:05:09 51°18.441 2°51.908 14.0833 0.023685 0.146868 -0.791624
2009-12-14 08:05:13 51°18.452 2°51.906 14.0973 0.023685 0.146868 -0.791624
2009-12-14 08:05:18 51°18.467 2°51.903 14.0788 0.023582 0.146208 -0.791624
2009-12-14 08:05:24 51°18.485 2°51.899 14.1047 0.023685 0.146862 -0.791624
2009-12-14 08:05:28 51°18.497 2°51.896 14.0885 0.023582 0.146208 -0.791624
2009-12-14 08:05:33 51°18.511 2°51.893 14.0785 0.023685 0.14685 -0.791624
2009-12-14 08:05:38 51°18.526 2°51.89 14.1012 0.023582 0.146222 -0.791624
2009-12-14 08:05:44 51°18.544 2°51.886 14.105 0.023582 0.146222 -0.791624
2009-12-14 08:05:48 51°18.555 2°51.883 14.0902 0.023582 0.146252 -0.791624
2009-12-14 08:05:53 51°18.57 2°51.879 14.0898 0.023582 0.146284 -0.791624
2009-12-14 08:05:58 51°18.585 2°51.876 14.0844 0.023582 0.146296 -0.791624
2009-12-14 08:06:04 51°18.603 2°51.871 14.1292 0.023582 0.146305 -0.791624
2009-12-14 08:06:09 51°18.617 2°51.868 14.0904 0.023685 0.146916 -0.791624
2009-12-14 08:06:13 51°18.629 2°51.865 14.1106 0.023685 0.146916 -0.791624
2009-12-14 08:06:18 51°18.644 2°51.861 14.1033 0.023582 0.146264 -0.791624
2009-12-14 08:06:24 51°18.661 2°51.857 14.1134 0.023685 0.14691 -0.791624
2009-12-14 08:06:29 51°18.676 2°51.854 14.0761 0.023685 0.146916 -0.791624
2009-12-14 08:06:33 51°18.687 2°51.851 14.0974 0.023685 0.146924 -0.791624
2009-12-14 08:06:38 51°18.702 2°51.847 14.1064 0.023582 0.146302 -0.791624
2009-12-14 08:06:44 51°18.719 2°51.842 14.1161 0.023582 0.146302 -0.791624
2009-12-14 08:06:49 51°18.734 2°51.839 14.1219 0.023582 0.146337 -0.791624
2009-12-14 08:06:53 51°18.745 2°51.836 14.1055 0.023582 0.146364 -0.791624
2009-12-14 08:06:58 51°18.76 2°51.832 14.1068 0.023479 0.145697 -0.791624
2009-12-14 08:07:04 51°18.777 2°51.828 14.1061 0.023582 0.146329 -0.791624
2009-12-14 08:07:08 51°18.789 2°51.826 14.1118 0.023582 0.146332 -0.791624
2009-12-14 08:07:13 51°18.804 2°51.823 14.1226 0.023582 0.146332 -0.791624
2009-12-14 08:07:17 51°18.815 2°51.821 14.1298 0.023582 0.146302 -0.791624
2009-12-14 08:07:24 51°18.835 2°51.816 14.1068 0.023582 0.146299 -0.791624
2009-12-14 08:07:29 51°18.85 2°51.813 14.0975 0.023582 0.146287 -0.791624
2009-12-14 08:07:33 51°18.862 2°51.81 14.113 0.023788 0.147589 -0.791624
2009-12-14 08:07:38 51°18.876 2°51.807 14.1302 0.023788 0.147621 -0.791624
2009-12-14 08:07:44 51°18.894 2°51.804 14.1073 0.023788 0.147621 -0.791624
2009-12-14 08:07:49 51°18.908 2°51.801 14.1323 0.023788 0.147639 -0.791624
2009-12-14 08:07:53 51°18.92 2°51.799 14.1221 0.023582 0.146417 -0.791624
2009-12-14 08:07:58 51°18.934 2°51.795 14.1243 0.023582 0.146376 -0.791624
2009-12-14 08:08:04 51°18.951 2°51.791 14.0952 0.023582 0.146394 -0.791624
2009-12-14 08:08:09 51°18.966 2°51.787 14.1209 0.023582 0.146388 -0.791624
2009-12-14 08:08:14 51°18.98 2°51.784 14.111 0.023582 0.146388 -0.791624
2009-12-14 08:08:19 51°18.995 2°51.78 14.1293 0.023582 0.146367 -0.791624
2009-12-14 08:08:24 51°19.01 2°51.777 14.114 0.023582 0.146406 -0.791624
2009-12-14 08:08:28 51°19.021 2°51.774 14.1354 0.023582 0.146391 -0.791624
2009-12-14 08:08:33 51°19.036 2°51.77 14.0985 0.023788 0.147705 -0.791624
2009-12-14 08:08:39 51°19.053 2°51.766 14.1172 0.023582 0.146408 -0.791624
2009-12-14 08:08:44 51°19.068 2°51.763 14.1347 0.023582 0.146408 -0.791624
2009-12-14 08:08:48 51°19.079 2°51.76 14.118 0.023685 0.147058 -0.791624
2009-12-14 08:08:53 51°19.093 2°51.756 14.1243 0.023582 0.146406 -0.791624
2009-12-14 08:08:59 51°19.111 2°51.752 14.1247 0.023582 0.1464 -0.791624
2009-12-14 08:09:04 51°19.125 2°51.749 14.1216 0.023582 0.146406 -0.791624
2009-12-14 08:09:08 51°19.137 2°51.746 14.1135 0.023788 0.147714 -0.791624
2009-12-14 08:09:13 51°19.152 2°51.743 14.1212 0.023788 0.147714 -0.791624
2009-12-14 08:09:18 51°19.166 2°51.74 14.1047 0.023582 0.146438 -0.791624
2009-12-14 08:09:24 51°19.183 2°51.735 14.0999 0.023582 0.146435 -0.791624
2009-12-14 08:09:29 51°19.198 2°51.732 14.1394 0.023788 0.147735 -0.791624
2009-12-14 08:09:33 51°19.209 2°51.73 14.0965 0.023582 0.146453 -0.791624
2009-12-14 08:09:38 51°19.224 2°51.727 14.1099 0.023685 0.14713 -0.791624
2009-12-14 08:09:44 51°19.241 2°51.724 14.1321 0.023685 0.14713 -0.791624
2009-12-14 08:09:49 51°19.256 2°51.721 14.0967 0.023685 0.147165 -0.791624
2009-12-14 08:09:53 51°19.268 2°51.719 14.1421 0.023685 0.147133 -0.791624
2009-12-14 08:09:58 51°19.282 2°51.716 14.1338 0.023582 0.146462 -0.791624
2009-12-14 08:10:04 51°19.299 2°51.712 14.1117 0.023582 0.146524 -0.791624
2009-12-14 08:10:09 51°19.314 2°51.709 14.1389 0.023582 0.14653 -0.791624
2009-12-14 08:10:14 51°19.328 2°51.706 14.1422 0.023582 0.14653 -0.791624
2009-12-14 08:10:18 51°19.34 2°51.704 14.1289 0.023479 0.145868 -0.791624
2009-12-14 08:10:24 51°19.358 2°51.699 14.1474 0.023685 0.147186 -0.791624
2009-12-14 08:10:29 51°19.372 2°51.696 14.0888 0.023685 0.147189 -0.791624
2009-12-14 08:10:34 51°19.386 2°51.692 14.1012 0.023788 0.147825 -0.791624
2009-12-14 08:10:38 51°19.398 2°51.689 14.133 0.023582 0.146542 -0.791624
2009-12-14 08:10:44 51°19.415 2°51.684 14.1096 0.023582 0.146542 -0.791624
2009-12-14 08:10:48 51°19.427 2°51.681 14.1014 0.023582 0.146542 -0.791624
2009-12-14 08:10:53 51°19.441 2°51.678 14.1425 0.023582 0.146557 -0.791624
2009-12-14 08:10:58 51°19.456 2°51.674 14.1177 0.023479 0.145948 -0.791624
2009-12-14 08:11:04 51°19.473 2°51.669 14.1255 0.023685 0.147225 -0.791624
2009-12-14 08:11:09 51°19.488 2°51.666 14.1125 0.023479 0.145924 -0.791624
2009-12-14 08:11:14 51°19.502 2°51.662 14.1172 0.023479 0.145924 -0.791624
2009-12-14 08:11:18 51°19.514 2°51.659 14.1226 0.023479 0.14593 -0.791624
2009-12-14 08:11:24 51°19.531 2°51.655 14.1445 0.023582 0.146589 -0.791624
2009-12-14 08:11:29 51°19.546 2°51.651 14.1335 0.023479 0.145918 -0.791624
2009-12-14 08:11:33 51°19.557 2°51.648 14.1474 0.023479 0.145915 -0.791624
2009-12-14 08:11:39 51°19.575 2°51.644 14.1279 0.023582 0.146566 -0.791624
2009-12-14 08:11:44 51°19.589 2°51.641 14.1426 0.023582 0.146566 -0.791624
2009-12-14 08:11:48 51°19.601 2°51.638 14.1527 0.023582 0.146571 -0.791624
2009-12-14 08:11:53 51°19.616 2°51.634 14.1429 0.023479 0.145915 -0.791624
2009-12-14 08:11:59 51°19.633 2°51.629 14.1205 0.023479 0.145945 -0.791624
2009-12-14 08:12:04 51°19.647 2°51.626 14.1537 0.023479 0.145951 -0.791624
2009-12-14 08:12:09 51°19.662 2°51.622 14.1519 0.023479 0.14596 -0.791624
2009-12-14 08:12:13 51°19.673 2°51.619 14.161 0.023479 0.14596 -0.791624
2009-12-14 08:12:18 51°19.688 2°51.615 14.1222 0.023685 0.147264 -0.791624
2009-12-14 08:12:24 51°19.705 2°51.611 14.1443 0.023582 0.146604 -0.791624
2009-12-14 08:12:29 51°19.72 2°51.607 14.1591 0.023582 0.146604 -0.791624
2009-12-14 08:12:33 51°19.731 2°51.604 14.1539 0.023685 0.147255 -0.791624
2009-12-14 08:12:38 51°19.746 2°51.601 14.1266 0.023788 0.147933 -0.791624
2009-12-14 08:12:44 51°19.763 2°51.598 14.1553 0.023788 0.147933 -0.791624
2009-12-14 08:12:48 51°19.775 2°51.596 14.1537 0.023788 0.147954 -0.791624
2009-12-14 08:12:54 51°19.792 2°51.592 14.1201 0.023479 0.146033 -0.791624
2009-12-14 08:12:58 51°19.804 2°51.589 14.1483 0.023479 0.146051 -0.791624
2009-12-14 08:13:04 51°19.822 2°51.585 14.1091 0.023788 0.148005 -0.791624
2009-12-14 08:13:08 51°19.833 2°51.583 14.16 0.023582 0.146684 -0.791624
2009-12-14 08:13:13 51°19.848 2°51.58 14.1468 0.023582 0.146684 -0.791624
2009-12-14 08:13:19 51°19.866 2°51.577 14.1518 0.023479 0.146081 -0.791624
2009-12-14 08:13:24 51°19.88 2°51.574 14.1555 0.023582 0.146732 -0.791624
2009-12-14 08:13:28 51°19.892 2°51.572 14.1605 0.023479 0.146072 -0.791624
2009-12-14 08:13:33 51°19.907 2°51.57 14.1422 0.023479 0.146081 -0.791624
2009-12-14 08:13:39 51°19.925 2°51.566 14.1263 0.023479 0.146054 -0.791624
2009-12-14 08:13:44 51°19.939 2°51.564 14.1605 0.023479 0.146054 -0.791624
2009-12-14 08:13:49 51°19.954 2°51.561 14.1652 0.023582 0.146708 -0.791624
2009-12-14 08:13:53 51°19.966 2°51.559 14.1735 0.023582 0.146708 -0.791624
2009-12-14 08:13:58 51°19.981 2°51.556 14.1594 0.023479 0.146069 -0.791624
2009-12-14 08:14:04 51°19.999 2°51.552 14.1454 0.023479 0.146081 -0.791624
2009-12-14 08:14:08 51°20.01 2°51.55 14.1571 0.023376 0.145418 -0.791624
2009-12-14 08:14:13 51°20.025 2°51.547 14.1363 0.023376 0.145418 -0.791624
2009-12-14 08:14:18 51°20.04 2°51.543 14.1672 0.023479 0.146066 -0.791624
2009-12-14 08:14:24 51°20.058 2°51.539 14.1363 0.023479 0.146057 -0.791624
2009-12-14 08:14:28 51°20.069 2°51.536 14.157 0.023582 0.146717 -0.791624
2009-12-14 08:14:34 51°20.087 2°51.533 14.1537 0.023479 0.146069 -0.791624
2009-12-14 08:14:38 51°20.099 2°51.53 14.1677 0.023582 0.146714 -0.791624
2009-12-14 08:14:44 51°20.116 2°51.526 14.1566 0.023582 0.146714 -0.791624
2009-12-14 08:14:49 51°20.13 2°51.523 14.1472 0.023788 0.148029 -0.791624
2009-12-14 08:14:53 51°20.142 2°51.52 14.1542 0.023582 0.146756 -0.791624
2009-12-14 08:14:58 51°20.157 2°51.517 14.1752 0.023685 0.147431 -0.791624
2009-12-14 08:15:04 51°20.175 2°51.514 14.1754 0.023479 0.14614 -0.791624
2009-12-14 08:15:09 51°20.189 2°51.51 14.1448 0.023788 0.148113 -0.7568
2009-12-14 08:15:14 51°20.204 2°51.507 14.1813 0.023788 0.148113 -0.7568
2009-12-14 08:15:18 51°20.215 2°51.505 14.1676 0.023582 0.146845 -0.791624
2009-12-14 08:15:24 51°20.233 2°51.501 14.1631 0.023479 0.146223 -0.791624
2009-12-14 08:15:28 51°20.245 2°51.499 14.1639 0.023582 0.146875 -0.791624
2009-12-14 08:15:33 51°20.259 2°51.495 14.1563 0.023582 0.146824 -0.791624
2009-12-14 08:15:39 51°20.277 2°51.491 14.1787 0.023582 0.146815 -0.791624
2009-12-14 08:15:44 51°20.292 2°51.488 14.1678 0.023582 0.146815 -0.791624
2009-12-14 08:15:48 51°20.303 2°51.486 14.1723 0.023479 0.146185 -0.791624
2009-12-14 08:15:53 51°20.318 2°51.482 14.1635 0.023479 0.146217 -0.791624
2009-12-14 08:15:59 51°20.336 2°51.478 14.177 0.023376 0.145589 -0.791624
2009-12-14 08:16:04 51°20.351 2°51.474 14.1675 0.023376 0.145598 -0.791624
2009-12-14 08:16:09 51°20.365 2°51.471 14.1766 0.023376 0.145601 -0.791624
2009-12-14 08:16:13 51°20.377 2°51.468 14.1785 0.023376 0.145601 -0.791624
2009-12-14 08:16:18 51°20.392 2°51.465 14.1665 0.023479 0.146232 -0.791624
2009-12-14 08:16:24 51°20.41 2°51.461 14.1897 0.023376 0.14558 -0.791624
2009-12-14 08:16:28 51°20.422 2°51.458 14.1631 0.023376 0.145577 -0.791624
2009-12-14 08:16:33 51°20.436 2°51.454 14.195 0.023479 0.146217 -0.791624
2009-12-14 08:16:38 51°20.451 2°51.451 14.1709 0.023479 0.146173 -0.791624
2009-12-14 08:16:44 51°20.469 2°51.447 14.2014 0.023479 0.146173 -0.791624
2009-12-14 08:16:48 51°20.481 2°51.443 14.2278 0.023582 0.146809 -0.791624
2009-12-14 08:16:53 51°20.495 2°51.439 14.2848 0.024405 0.152037 -0.791624
2009-12-14 08:16:58 51°20.509 2°51.433 14.1891 0.024302 0.151418 -0.791624
2009-12-14 08:17:04 51°20.525 2°51.421 14.1748 0.023891 0.148835 -0.791624
2009-12-14 08:17:08 51°20.535 2°51.412 14.198 0.023788 0.1482 -0.791624
2009-12-14 08:17:13 51°20.549 2°51.403 14.1674 0.023788 0.1482 -0.791624
2009-12-14 08:17:19 51°20.565 2°51.389 14.1517 0.023582 0.146905 -0.791624
2009-12-14 08:17:24 51°20.578 2°51.379 14.1939 0.023685 0.147554 -0.791624
2009-12-14 08:17:28 51°20.589 2°51.371 14.1796 0.023685 0.14753 -0.791624
2009-12-14 08:17:33 51°20.602 2°51.359 14.2034 0.023582 0.146848 -0.791624
2009-12-14 08:17:39 51°20.618 2°51.345 14.1785 0.023479 0.146217 -0.791624
2009-12-14 08:17:44 51°20.631 2°51.333 14.1699 0.023479 0.146217 -0.791624
2009-12-14 08:17:48 51°20.641 2°51.324 14.1997 0.023582 0.146905 -0.791624
2009-12-14 08:17:53 51°20.655 2°51.311 14.1955 0.023582 0.146953 -0.791624
2009-12-14 08:17:59 51°20.67 2°51.296 14.1802 0.023479 0.14628 -0.791624
2009-12-14 08:18:04 51°20.683 2°51.284 14.1714 0.023479 0.146274 -0.791624
2009-12-14 08:18:08 51°20.694 2°51.273 14.18 0.023685 0.147533 -0.791624
2009-12-14 08:18:13 51°20.707 2°51.261 14.1735 0.023685 0.147533 -0.791624
2009-12-14 08:18:19 51°20.723 2°51.247 14.2098 0.023479 0.146253 -0.791624
2009-12-14 08:18:24 51°20.736 2°51.235 14.1663 0.023582 0.146905 -0.791624
2009-12-14 08:18:28 51°20.747 2°51.225 14.205 0.023582 0.146896 -0.791624
2009-12-14 08:18:33 51°20.76 2°51.214 14.2013 0.023479 0.146271 -0.791624
2009-12-14 08:18:38 51°20.774 2°51.202 14.1962 0.023479 0.146321 -0.791624
2009-12-14 08:18:44 51°20.79 2°51.188 14.1862 0.023479 0.146321 -0.791624
2009-12-14 08:18:49 51°20.803 2°51.175 14.1986 0.023582 0.146997 -0.791624
2009-12-14 08:18:53 51°20.814 2°51.165 14.1851 0.023479 0.146291 -0.791624
2009-12-14 08:18:58 51°20.827 2°51.154 14.2098 0.023479 0.146297 -0.791624
2009-12-14 08:19:04 51°20.844 2°51.139 14.2135 0.023479 0.146315 -0.791624
2009-12-14 08:19:09 51°20.857 2°51.127 14.1838 0.023479 0.14633 -0.791624
2009-12-14 08:19:14 51°20.871 2°51.115 14.214 0.023479 0.14633 -0.791624
2009-12-14 08:19:18 51°20.881 2°51.105 14.1826 0.023479 0.146315 -0.791624
2009-12-14 08:19:24 51°20.897 2°51.09 14.223 0.023582 0.146953 -0.791624
2009-12-14 08:19:28 51°20.908 2°51.08 14.2242 0.023479 0.146282 -0.791624
2009-12-14 08:19:33 51°20.921 2°51.067 14.2163 0.023582 0.146947 -0.791624
2009-12-14 08:19:38 51°20.934 2°51.055 14.1859 0.023582 0.147003 -0.791624
2009-12-14 08:19:44 51°20.95 2°51.039 14.2045 0.023582 0.147003 -0.791624
2009-12-14 08:19:48 51°20.961 2°51.029 14.223 0.023376 0.145675 -0.791624
2009-12-14 08:19:54 51°20.977 2°51.014 14.2095 0.023376 0.145657 -0.791624
2009-12-14 08:19:58 51°20.988 2°51.004 14.2151 0.023479 0.146315 -0.791624
2009-12-14 08:20:04 51°21.003 2°50.989 14.2066 0.023376 0.145693 -0.791624
2009-12-14 08:20:08 51°21.014 2°50.979 14.2064 0.023479 0.146318 -0.791624
2009-12-14 08:20:13 51°21.028 2°50.968 14.2206 0.023479 0.146318 -0.791624
2009-12-14 08:20:19 51°21.044 2°50.955 14.2275 0.023376 0.145675 -0.791624
2009-12-14 08:20:24 51°21.058 2°50.945 14.194 0.023685 0.147656 -0.791624
2009-12-14 08:20:28 51°21.069 2°50.937 14.2162 0.023582 0.147015 -0.791624
2009-12-14 08:20:33 51°21.083 2°50.926 14.2315 0.023479 0.146395 -0.791624
2009-12-14 08:20:39 51°21.1 2°50.914 14.1927 0.023479 0.146422 -0.791624
2009-12-14 08:20:44 51°21.113 2°50.904 14.2299 0.023479 0.146422 -0.791624
2009-12-14 08:20:48 51°21.125 2°50.897 14.2003 0.023479 0.146446 -0.791624
2009-12-14 08:20:53 51°21.139 2°50.887 14.2147 0.023479 0.146449 -0.791624
2009-12-14 08:20:58 51°21.153 2°50.877 14.2279 0.023479 0.146378 -0.791624
2009-12-14 08:21:04 51°21.17 2°50.866 14.2326 0.023376 0.145752 -0.791624
2009-12-14 08:21:09 51°21.184 2°50.857 14.2299 0.023376 0.145761 -0.791624
2009-12-14 08:21:13 51°21.195 2°50.849 14.2143 0.023376 0.145761 -0.791624
2009-12-14 08:21:18 51°21.209 2°50.839 14.2097 0.023376 0.14577 -0.791624
2009-12-14 08:21:24 51°21.225 2°50.828 14.2057 0.023273 0.14512 -0.791624
2009-12-14 08:21:29 51°21.24 2°50.818 14.2256 0.023479 0.146425 -0.791624
2009-12-14 08:21:34 51°21.254 2°50.809 14.2381 0.023376 0.145778 -0.791624
2009-12-14 08:21:38 51°21.265 2°50.802 14.2255 0.023376 0.145778 -0.791624
2009-12-14 08:21:44 51°21.282 2°50.791 14.2381 0.023376 0.145778 -0.791624
2009-12-14 08:21:48 51°21.293 2°50.783 14.2501 0.023479 0.146434 -0.791624
2009-12-14 08:21:53 51°21.307 2°50.774 14.2286 0.023376 0.145802 -0.791624
2009-12-14 08:21:58 51°21.321 2°50.763 14.2306 0.023376 0.145734 -0.791624
2009-12-14 08:22:04 51°21.338 2°50.751 14.2316 0.023582 0.147042 -0.791624
2009-12-14 08:22:08 51°21.349 2°50.742 14.2172 0.023376 0.145773 -0.791624
2009-12-14 08:22:14 51°21.365 2°50.731 14.2396 0.023376 0.145773 -0.791624
2009-12-14 08:22:18 51°21.376 2°50.723 14.2602 0.023479 0.146428 -0.791624
2009-12-14 08:22:24 51°21.393 2°50.711 14.2027 0.023994 0.149682 -0.791624
2009-12-14 08:22:28 51°21.405 2°50.703 14.209 0.023582 0.147093 -0.791624
2009-12-14 08:22:33 51°21.419 2°50.695 14.2238 0.023479 0.146422 -0.791624
2009-12-14 08:22:38 51°21.434 2°50.687 14.2478 0.023376 0.145758 -0.791624
2009-12-14 08:22:44 51°21.451 2°50.679 14.2287 0.023376 0.145758 -0.791624
2009-12-14 08:22:49 51°21.465 2°50.671 14.2449 0.023582 0.147051 -0.791624
2009-12-14 08:22:53 51°21.477 2°50.666 14.2481 0.023376 0.14579 -0.791624
2009-12-14 08:22:58 51°21.492 2°50.66 14.2423 0.023685 0.147746 -0.791624
2009-12-14 08:23:04 51°21.51 2°50.653 14.2557 0.023891 0.149068 -0.791624
2009-12-14 08:23:09 51°21.525 2°50.647 14.2509 0.023891 0.149065 -0.791624
2009-12-14 08:23:13 51°21.537 2°50.643 14.1954 0.023891 0.149065 -0.791624
2009-12-14 08:23:18 51°21.551 2°50.638 14.2345 0.023376 0.145814 -0.791624
2009-12-14 08:23:24 51°21.569 2°50.632 14.2686 0.023582 0.147069 -0.791624
2009-12-14 08:23:29 51°21.584 2°50.63 14.2416 0.023479 0.146428 -0.791624
2009-12-14 08:23:33 51°21.595 2°50.627 14.2637 0.023479 0.14644 -0.791624
2009-12-14 08:23:38 51°21.61 2°50.626 14.2518 0.023685 0.147752 -0.791624
2009-12-14 08:23:44 51°21.628 2°50.623 14.2505 0.023685 0.147752 -0.791624
2009-12-14 08:23:48 51°21.64 2°50.622 14.2388 0.023479 0.146455 -0.791624
2009-12-14 08:23:53 51°21.655 2°50.621 14.2399 0.023479 0.146461 -0.791624
2009-12-14 08:23:58 51°21.67 2°50.621 14.2431 0.023376 0.145814 -0.826448
2009-12-14 08:24:04 51°21.688 2°50.619 14.2636 0.023376 0.145808 -0.791624
2009-12-14 08:24:08 51°21.7 2°50.619 14.2623 0.023479 0.146449 -0.791624
2009-12-14 08:24:13 51°21.715 2°50.619 14.239 0.023479 0.146449 -0.791624
2009-12-14 08:24:18 51°21.73 2°50.619 14.2638 0.023479 0.146461 -0.791624
2009-12-14 08:24:24 51°21.748 2°50.619 14.2667 0.023479 0.14647 -0.791624
2009-12-14 08:24:29 51°21.763 2°50.618 14.2595 0.023376 0.14582 -0.791624
2009-12-14 08:24:34 51°21.778 2°50.618 14.2435 0.023582 0.147117 -0.791624
2009-12-14 08:24:38 51°21.79 2°50.618 14.2564 0.023376 0.14582 -0.791624
2009-12-14 08:24:44 51°21.807 2°50.617 14.2366 0.023376 0.14582 -0.791624
2009-12-14 08:24:49 51°21.822 2°50.617 14.2636 0.023479 0.146467 -0.791624
2009-12-14 08:24:53 51°21.834 2°50.617 14.2794 0.023582 0.147129 -0.791624
2009-12-14 08:24:59 51°21.852 2°50.616 14.2243 0.023376 0.145835 -0.791624
2009-12-14 08:25:04 51°21.867 2°50.616 14.2832 0.023479 0.146488 -0.791624
2009-12-14 08:25:08 51°21.879 2°50.617 14.2279 0.023582 0.147138 -0.791624
2009-12-14 08:25:13 51°21.894 2°50.616 14.2694 0.023582 0.147138 -0.791624
2009-12-14 08:25:18 51°21.909 2°50.617 14.2589 0.023376 0.145847 -0.791624
2009-12-14 08:25:24 51°21.927 2°50.616 14.2726 0.023376 0.145847 -0.791624
2009-12-14 08:25:28 51°21.939 2°50.617 14.2598 0.023582 0.147147 -0.791624
2009-12-14 08:25:33 51°21.954 2°50.617 14.2714 0.023376 0.145847 -0.791624
2009-12-14 08:25:38 51°21.969 2°50.617 14.2828 0.023376 0.145847 -0.791624
2009-12-14 08:25:44 51°21.987 2°50.617 14.2632 0.023376 0.145847 -0.791624
2009-12-14 08:25:48 51°21.999 2°50.617 14.2836 0.023479 0.146497 -0.791624
2009-12-14 08:25:53 51°22.014 2°50.617 14.2866 0.023376 0.145844 -0.791624
2009-12-14 08:25:58 51°22.029 2°50.616 14.2391 0.023479 0.146494 -0.791624
2009-12-14 08:26:04 51°22.047 2°50.616 14.2311 0.023479 0.146497 -0.791624
2009-12-14 08:26:09 51°22.062 2°50.616 14.279 0.023582 0.147141 -0.791624
2009-12-14 08:26:14 51°22.077 2°50.615 14.2743 0.023582 0.147141 -0.791624
2009-12-14 08:26:18 51°22.089 2°50.615 14.3097 0.023582 0.147141 -0.791624
2009-12-14 08:26:24 51°22.107 2°50.615 14.272 0.023788 0.148457 -0.791624
2009-12-14 08:26:28 51°22.119 2°50.615 14.2699 0.023376 0.145859 -0.791624
2009-12-14 08:26:33 51°22.134 2°50.615 14.2662 0.023479 0.146503 -0.791624
2009-12-14 08:26:39 51°22.152 2°50.614 14.2952 0.023376 0.145853 -0.791624
2009-12-14 08:26:44 51°22.167 2°50.615 14.2703 0.023376 0.145853 -0.791624
2009-12-14 08:26:48 51°22.179 2°50.614 14.2941 0.023479 0.146497 -0.791624
2009-12-14 08:26:54 51°22.198 2°50.614 14.243 0.023479 0.146497 -0.791624
2009-12-14 08:26:58 51°22.21 2°50.613 14.2831 0.023376 0.145841 -0.791624
2009-12-14 08:27:04 51°22.227 2°50.613 14.3116 0.023685 0.147749 -0.791624
2009-12-14 08:27:08 51°22.239 2°50.613 14.2677 0.023376 0.145817 -0.791624
2009-12-14 08:27:13 51°22.254 2°50.613 14.2537 0.023376 0.145817 -0.791624
2009-12-14 08:27:19 51°22.272 2°50.612 14.3003 0.023582 0.147132 -0.791624
2009-12-14 08:27:24 51°22.287 2°50.612 14.2427 0.023376 0.145847 -0.791624
2009-12-14 08:27:28 51°22.299 2°50.611 14.3072 0.023582 0.147165 -0.791624
2009-12-14 08:27:33 51°22.315 2°50.612 14.2907 0.023582 0.147186 -0.791624
2009-12-14 08:27:38 51°22.33 2°50.61 14.2889 0.023479 0.146562 -0.791624
2009-12-14 08:27:44 51°22.348 2°50.61 14.2937 0.023479 0.146562 -0.791624
2009-12-14 08:27:48 51°22.36 2°50.609 14.2729 0.023582 0.147234 -0.791624
2009-12-14 08:27:53 51°22.375 2°50.61 14.3037 0.023582 0.147243 -0.791624
2009-12-14 08:27:58 51°22.39 2°50.609 14.2702 0.023479 0.146598 -0.791624
2009-12-14 08:28:04 51°22.408 2°50.608 14.2802 0.023376 0.145939 -0.791624
2009-12-14 08:28:09 51°22.423 2°50.607 14.294 0.023582 0.147231 -0.791624
2009-12-14 08:28:13 51°22.435 2°50.606 14.278 0.023582 0.147231 -0.791624
2009-12-14 08:28:18 51°22.45 2°50.606 14.294 0.023479 0.146583 -0.791624
2009-12-14 08:28:24 51°22.468 2°50.606 14.3065 0.023479 0.14658 -0.791624
2009-12-14 08:28:29 51°22.483 2°50.605 14.2975 0.023479 0.146583 -0.791624
2009-12-14 08:28:34 51°22.498 2°50.604 14.2936 0.023582 0.147249 -0.791624
2009-12-14 08:28:38 51°22.51 2°50.604 14.2819 0.023376 0.14596 -0.791624
2009-12-14 08:28:44 51°22.528 2°50.603 14.3171 0.023376 0.14596 -0.791624
2009-12-14 08:28:48 51°22.54 2°50.603 14.3139 0.023582 0.147258 -0.791624
2009-12-14 08:28:53 51°22.556 2°50.602 14.3003 0.023685 0.147912 -0.791624
2009-12-14 08:28:59 51°22.574 2°50.601 14.3015 0.023479 0.146607 -0.791624
2009-12-14 08:29:04 51°22.589 2°50.6 14.2948 0.023479 0.14661 -0.791624
2009-12-14 08:29:08 51°22.601 2°50.6 14.3109 0.023582 0.14727 -0.791624
2009-12-14 08:29:13 51°22.617 2°50.599 14.2884 0.023582 0.14727 -0.791624
2009-12-14 08:29:18 51°22.632 2°50.598 14.317 0.023479 0.146628 -0.791624
2009-12-14 08:29:24 51°22.65 2°50.597 14.3176 0.023479 0.146631 -0.791624
2009-12-14 08:29:29 51°22.665 2°50.596 14.3145 0.023582 0.147285 -0.791624
2009-12-14 08:29:33 51°22.677 2°50.595 14.3003 0.023479 0.146628 -0.791624
2009-12-14 08:29:38 51°22.692 2°50.594 14.2847 0.023479 0.146643 -0.791624
2009-12-14 08:29:44 51°22.71 2°50.594 14.3096 0.023479 0.146643 -0.791624
2009-12-14 08:29:49 51°22.726 2°50.592 14.3058 0.023582 0.147309 -0.791624
2009-12-14 08:29:53 51°22.738 2°50.591 14.3162 0.023479 0.146661 -0.791624
2009-12-14 08:29:58 51°22.753 2°50.591 14.291 0.023376 0.14601 -0.791624
2009-12-14 08:30:04 51°22.772 2°50.59 14.3264 0.023479 0.146658 -0.791624
2009-12-14 08:30:09 51°22.787 2°50.589 14.3147 0.023582 0.147303 -0.791624
2009-12-14 08:30:13 51°22.799 2°50.589 14.3142 0.023582 0.147303 -0.791624
2009-12-14 08:30:18 51°22.814 2°50.588 14.3146 0.023582 0.147297 -0.791624
2009-12-14 08:30:24 51°22.832 2°50.587 14.3255 0.023479 0.146634 -0.791624
2009-12-14 08:30:29 51°22.847 2°50.586 14.3173 0.023479 0.146643 -0.826448
2009-12-14 08:30:34 51°22.862 2°50.586 14.3058 0.023376 0.145992 -0.791624
2009-12-14 08:30:38 51°22.874 2°50.585 14.3249 0.023479 0.146631 -0.791624
2009-12-14 08:30:44 51°22.892 2°50.585 14.3031 0.023479 0.146631 -0.791624
2009-12-14 08:30:48 51°22.904 2°50.584 14.3114 0.023685 0.147942 -0.791624
2009-12-14 08:30:53 51°22.919 2°50.584 14.301 0.023479 0.146652 -0.791624
2009-12-14 08:30:58 51°22.934 2°50.583 14.3187 0.023479 0.146646 -0.826448
2009-12-14 08:31:04 51°22.952 2°50.582 14.3051 0.023479 0.146649 -0.826448
2009-12-14 08:31:09 51°22.967 2°50.582 14.3227 0.023479 0.146643 -0.791624
2009-12-14 08:31:14 51°22.982 2°50.582 14.3051 0.023479 0.146643 -0.791624
2009-12-14 08:31:18 51°22.994 2°50.582 14.3448 0.023376 0.145998 -0.791624
2009-12-14 08:31:24 51°23.012 2°50.581 14.3265 0.023685 0.147948 -0.791624
2009-12-14 08:31:29 51°23.027 2°50.581 14.3079 0.023479 0.146613 -0.791624
2009-12-14 08:31:33 51°23.038 2°50.581 14.3318 0.023479 0.146613 -0.791624
2009-12-14 08:31:39 51°23.056 2°50.581 14.3079 0.023582 0.147303 -0.826448
2009-12-14 08:31:44 51°23.071 2°50.58 14.3266 0.023582 0.147303 -0.826448
2009-12-14 08:31:48 51°23.083 2°50.579 14.3484 0.023582 0.147324 -0.791624
2009-12-14 08:31:53 51°23.098 2°50.579 14.297 0.023891 0.149272 -0.791624
2009-12-14 08:31:58 51°23.112 2°50.578 14.3181 0.023788 0.148606 -0.791624
2009-12-14 08:32:04 51°23.13 2°50.577 14.3334 0.023479 0.146628 -0.826448
2009-12-14 08:32:09 51°23.145 2°50.576 14.3349 0.023479 0.14664 -0.791624
2009-12-14 08:32:13 51°23.156 2°50.576 14.3375 0.023479 0.14664 -0.791624
2009-12-14 08:32:18 51°23.171 2°50.574 14.3385 0.0242 0.151206 -0.791624
2009-12-14 08:32:24 51°23.188 2°50.574 14.3144 0.024097 0.150588 -0.791624
2009-12-14 08:32:28 51°23.2 2°50.574 14.3492 0.023479 0.146679 -0.826448
2009-12-14 08:32:33 51°23.215 2°50.573 14.3272 0.023479 0.146676 -0.791624
2009-12-14 08:32:39 51°23.233 2°50.572 14.3416 0.023685 0.147969 -0.826448
2009-12-14 08:32:44 51°23.247 2°50.571 14.3339 0.023685 0.147969 -0.826448
2009-12-14 08:32:49 51°23.262 2°50.571 14.3401 0.023994 0.149927 -0.791624
2009-12-14 08:32:53 51°23.274 2°50.571 14.3476 0.023685 0.147978 -0.826448
2009-12-14 08:32:58 51°23.289 2°50.57 14.3427 0.023685 0.147978 -0.791624
2009-12-14 08:33:04 51°23.307 2°50.569 14.3478 0.023479 0.146718 -0.791624
2009-12-14 08:33:08 51°23.319 2°50.569 14.3546 0.023685 0.14803 -0.791624
2009-12-14 08:33:14 51°23.337 2°50.567 14.3382 0.023685 0.14803 -0.791624
2009-12-14 08:33:18 51°23.348 2°50.567 14.354 0.023479 0.146724 -0.791624
2009-12-14 08:33:24 51°23.366 2°50.565 14.3316 0.023685 0.148039 -0.791624
2009-12-14 08:33:28 51°23.378 2°50.565 14.3363 0.023685 0.148036 -0.791624
2009-12-14 08:33:33 51°23.393 2°50.564 14.3427 0.023479 0.14673 -0.826448
2009-12-14 08:33:39 51°23.41 2°50.563 14.3672 0.023788 0.148684 -0.791624
2009-12-14 08:33:44 51°23.425 2°50.562 14.3523 0.023788 0.148684 -0.791624
2009-12-14 08:33:48 51°23.437 2°50.562 14.3446 0.023685 0.148033 -0.826448
2009-12-14 08:33:53 51°23.452 2°50.561 14.3299 0.023582 0.147366 -0.791624
2009-12-14 08:33:59 51°23.469 2°50.56 14.3541 0.023685 0.148015 -0.791624
2009-12-14 08:34:04 51°23.484 2°50.559 14.3513 0.023479 0.146727 -0.791624
2009-12-14 08:34:09 51°23.499 2°50.558 14.3664 0.023582 0.147378 -0.791624
2009-12-14 08:34:13 51°23.511 2°50.558 14.3534 0.023582 0.147378 -0.791624
2009-12-14 08:34:18 51°23.526 2°50.557 14.3218 0.023685 0.148033 -0.791624
2009-12-14 08:34:24 51°23.543 2°50.556 14.3641 0.023582 0.147357 -0.791624
2009-12-14 08:34:28 51°23.555 2°50.554 14.3654 0.023582 0.147348 -0.791624
2009-12-14 08:34:33 51°23.57 2°50.553 14.3585 0.023376 0.146055 -0.826448
2009-12-14 08:34:38 51°23.585 2°50.553 14.3719 0.023685 0.14803 -0.791624
2009-12-14 08:34:44 51°23.602 2°50.552 14.3722 0.023685 0.14803 -0.791624
2009-12-14 08:34:48 51°23.614 2°50.551 14.3506 0.023582 0.147411 -0.791624
2009-12-14 08:34:53 51°23.629 2°50.55 14.3687 0.023479 0.146766 -0.791624
2009-12-14 08:34:58 51°23.644 2°50.55 14.3696 0.023376 0.146114 -0.826448
2009-12-14 08:35:04 51°23.661 2°50.548 14.3802 0.023479 0.146766 -0.791624
2009-12-14 08:35:09 51°23.676 2°50.548 14.3334 0.023479 0.146766 -0.791624
2009-12-14 08:35:13 51°23.688 2°50.547 14.3504 0.023479 0.146766 -0.791624
2009-12-14 08:35:18 51°23.703 2°50.546 14.3706 0.023479 0.14673 -0.791624
2009-12-14 08:35:24 51°23.721 2°50.546 14.3301 0.023479 0.146706 -0.791624
2009-12-14 08:35:29 51°23.736 2°50.545 14.3745 0.023891 0.149318 -0.791624
2009-12-14 08:35:34 51°23.75 2°50.545 14.3749 0.023479 0.146724 -0.791624
2009-12-14 08:35:38 51°23.762 2°50.544 14.3551 0.023479 0.146727 -0.826448
2009-12-14 08:35:44 51°23.78 2°50.544 14.3851 0.023479 0.146727 -0.826448
2009-12-14 08:35:48 51°23.792 2°50.544 14.3579 0.023479 0.146733 -0.791624
2009-12-14 08:35:53 51°23.807 2°50.542 14.3818 0.023479 0.146736 -0.826448
2009-12-14 08:35:59 51°23.825 2°50.542 14.3751 0.023685 0.148057 -0.791624
2009-12-14 08:36:04 51°23.84 2°50.542 14.3642 0.023685 0.14806 -0.826448
2009-12-14 08:36:08 51°23.852 2°50.542 14.3437 0.023891 0.149324 -0.791624
2009-12-14 08:36:13 51°23.866 2°50.541 14.3826 0.023891 0.149324 -0.791624
2009-12-14 08:36:18 51°23.881 2°50.541 14.3761 0.023479 0.146733 -0.826448
2009-12-14 08:36:24 51°23.899 2°50.54 14.3642 0.023479 0.146742 -0.791624
2009-12-14 08:36:28 51°23.911 2°50.54 14.3805 0.023376 0.146111 -0.826448
2009-12-14 08:36:33 51°23.926 2°50.539 14.3749 0.023582 0.147414 -0.826448
2009-12-14 08:36:38 51°23.941 2°50.537 14.3689 0.023479 0.146763 -0.791624
2009-12-14 08:36:44 51°23.959 2°50.536 14.3955 0.023479 0.146763 -0.791624
2009-12-14 08:36:48 51°23.971 2°50.535 14.3902 0.023685 0.148078 -0.791624
2009-12-14 08:36:53 51°23.985 2°50.534 14.3532 0.023582 0.147399 -0.826448
2009-12-14 08:36:58 51°24 2°50.532 14.3935 0.023685 0.148063 -0.791624
2009-12-14 08:37:04 51°24.018 2°50.532 14.4032 0.023685 0.148051 -0.791624
2009-12-14 08:37:08 51°24.03 2°50.531 14.3695 0.023685 0.148072 -0.826448
2009-12-14 08:37:14 51°24.048 2°50.53 14.3791 0.023685 0.148072 -0.826448
2009-12-14 08:37:18 51°24.06 2°50.528 14.3955 0.023582 0.147441 -0.826448
2009-12-14 08:37:24 51°24.078 2°50.527 14.3955 0.023685 0.148096 -0.826448
2009-12-14 08:37:28 51°24.089 2°50.526 14.39 0.023479 0.146793 -0.826448
2009-12-14 08:37:33 51°24.104 2°50.525 14.3881 0.023376 0.146153 -0.826448
2009-12-14 08:37:38 51°24.119 2°50.523 14.3868 0.023479 0.146814 -0.791624
2009-12-14 08:37:44 51°24.137 2°50.522 14.4073 0.023479 0.146814 -0.791624
2009-12-14 08:37:49 51°24.151 2°50.52 14.3884 0.023685 0.148121 -0.791624
2009-12-14 08:37:53 51°24.163 2°50.519 14.3972 0.023376 0.146162 -0.826448
2009-12-14 08:37:58 51°24.178 2°50.518 14.3651 0.023685 0.148118 -0.791624
2009-12-14 08:38:04 51°24.196 2°50.517 14.3918 0.023685 0.148115 -0.826448
2009-12-14 08:38:08 51°24.207 2°50.516 14.4032 0.023479 0.146805 -0.826448
2009-12-14 08:38:13 51°24.222 2°50.515 14.403 0.023479 0.146805 -0.826448
2009-12-14 08:38:19 51°24.24 2°50.513 14.3887 0.023685 0.148099 -0.826448
2009-12-14 08:38:24 51°24.255 2°50.512 14.3898 0.023479 0.146766 -0.826448
2009-12-14 08:38:28 51°24.267 2°50.512 14.3995 0.023376 0.146117 -0.791624
2009-12-14 08:38:33 51°24.282 2°50.511 14.4005 0.023479 0.146781 -0.826448
2009-12-14 08:38:38 51°24.296 2°50.511 14.41 0.023376 0.146126 -0.826448
2009-12-14 08:38:44 51°24.314 2°50.51 14.4173 0.023376 0.146126 -0.826448
2009-12-14 08:38:49 51°24.329 2°50.51 14.3959 0.023479 0.146781 -0.826448
2009-12-14 08:38:53 51°24.341 2°50.509 14.4097 0.023582 0.147438 -0.826448
2009-12-14 08:38:58 51°24.356 2°50.508 14.4156 0.023685 0.148105 -0.826448
2009-12-14 08:39:04 51°24.374 2°50.507 14.3953 0.023582 0.14746 -0.826448
2009-12-14 08:39:09 51°24.389 2°50.505 14.4051 0.023582 0.147447 -0.791624
2009-12-14 08:39:14 51°24.404 2°50.504 14.4179 0.023582 0.147447 -0.791624
2009-12-14 08:39:18 51°24.416 2°50.504 14.3825 0.023685 0.14809 -0.826448
2009-12-14 08:39:24 51°24.433 2°50.503 14.4059 0.023685 0.148081 -0.791624
2009-12-14 08:39:29 51°24.448 2°50.502 14.4215 0.023685 0.148105 -0.791624
2009-12-14 08:39:33 51°24.46 2°50.502 14.4196 0.023582 0.147484 -0.826448
2009-12-14 08:39:38 51°24.475 2°50.501 14.3976 0.023479 0.146844 -0.791624
2009-12-14 08:39:44 51°24.493 2°50.5 14.3804 0.023479 0.146844 -0.791624
2009-12-14 08:39:49 51°24.508 2°50.498 14.4223 0.023582 0.14749 -0.791624
2009-12-14 08:39:54 51°24.523 2°50.498 14.4143 0.023685 0.148105 -0.791624
2009-12-14 08:39:58 51°24.535 2°50.497 14.4196 0.023582 0.147454 -0.791624
2009-12-14 08:40:04 51°24.552 2°50.496 14.4151 0.023376 0.146141 -0.791624
2009-12-14 08:40:08 51°24.564 2°50.495 14.417 0.023479 0.146811 -0.826448
2009-12-14 08:40:13 51°24.579 2°50.494 14.4001 0.023479 0.146811 -0.826448
2009-12-14 08:40:19 51°24.597 2°50.493 14.4336 0.023376 0.14618 -0.791624
2009-12-14 08:40:24 51°24.612 2°50.492 14.4244 0.023685 0.148154 -0.826448
2009-12-14 08:40:28 51°24.624 2°50.492 14.4156 0.023376 0.146201 -0.791624
2009-12-14 08:40:33 51°24.639 2°50.491 14.4143 0.023582 0.147472 -0.791624
2009-12-14 08:40:39 51°24.657 2°50.49 14.4283 0.023376 0.146159 -0.826448
2009-12-14 08:40:44 51°24.672 2°50.49 14.4371 0.023376 0.146159 -0.826448
2009-12-14 08:40:49 51°24.687 2°50.49 14.4128 0.023788 0.148785 -0.826448
2009-12-14 08:40:53 51°24.699 2°50.49 14.4248 0.023479 0.146838 -0.826448
2009-12-14 08:40:58 51°24.715 2°50.49 14.4264 0.023582 0.147511 -0.826448
2009-12-14 08:41:04 51°24.733 2°50.489 14.434 0.023479 0.146856 -0.826448
2009-12-14 08:41:08 51°24.745 2°50.489 14.401 0.023582 0.147517 -0.791624
2009-12-14 08:41:13 51°24.76 2°50.489 14.4163 0.023582 0.147517 -0.791624
2009-12-14 08:41:18 51°24.775 2°50.488 14.4478 0.023376 0.146213 -0.826448
2009-12-14 08:41:23 51°24.79 2°50.488 14.4294 0.023685 0.148172 -0.791624
2009-12-14 08:41:29 51°24.808 2°50.487 14.4283 0.023582 0.14749 -0.791624
2009-12-14 08:41:33 51°24.82 2°50.487 14.4066 0.023788 0.148797 -0.826448
2009-12-14 08:41:38 51°24.835 2°50.486 14.4424 0.023582 0.147487 -0.826448
2009-12-14 08:41:44 51°24.853 2°50.486 14.45 0.023582 0.147487 -0.826448
2009-12-14 08:41:48 51°24.865 2°50.486 14.4279 0.023376 0.14621 -0.791624
2009-12-14 08:41:53 51°24.88 2°50.485 14.445 0.023685 0.148172 -0.791624
2009-12-14 08:41:59 51°24.898 2°50.485 14.4295 0.023582 0.147499 -0.826448
2009-12-14 08:42:04 51°24.913 2°50.484 14.4335 0.023788 0.148806 -0.826448
2009-12-14 08:42:08 51°24.925 2°50.484 14.4431 0.023685 0.148148 -0.791624
2009-12-14 08:42:13 51°24.94 2°50.483 14.4406 0.023685 0.148148 -0.791624
2009-12-14 08:42:19 51°24.958 2°50.482 14.4437 0.023376 0.146186 -0.826448
2009-12-14 08:42:24 51°24.973 2°50.481 14.4344 0.023582 0.147496 -0.791624
2009-12-14 08:42:28 51°24.985 2°50.481 14.4294 0.023479 0.146862 -0.791624
2009-12-14 08:42:34 51°25.003 2°50.48 14.4502 0.023582 0.147526 -0.791624
2009-12-14 08:42:38 51°25.015 2°50.479 14.4575 0.023376 0.146222 -0.826448
2009-12-14 08:42:44 51°25.033 2°50.478 14.4424 0.023376 0.146222 -0.826448
2009-12-14 08:42:49 51°25.048 2°50.476 14.4406 0.023376 0.146216 -0.826448
2009-12-14 08:42:53 51°25.06 2°50.475 14.4467 0.023788 0.148818 -0.826448
2009-12-14 08:42:58 51°25.076 2°50.475 14.4287 0.023788 0.148818 -0.826448
2009-12-14 08:43:04 51°25.094 2°50.474 14.468 0.023685 0.148136 -0.791624
2009-12-14 08:43:08 51°25.105 2°50.474 14.4469 0.023788 0.1488 -0.826448
2009-12-14 08:43:13 51°25.12 2°50.473 14.4649 0.023788 0.1488 -0.826448
2009-12-14 08:43:17 51°25.132 2°50.472 14.4711 0.023685 0.148169 -0.791624
2009-12-14 08:43:24 51°25.153 2°50.47 14.456 0.023788 0.148846 -0.791624
2009-12-14 08:43:29 51°25.167 2°50.469 14.4509 0.023685 0.148187 -0.826448
2009-12-14 08:43:33 51°25.18 2°50.468 14.4678 0.023788 0.148852 -0.826448
2009-12-14 08:43:38 51°25.194 2°50.467 14.4458 0.023891 0.149508 -0.826448
2009-12-14 08:43:44 51°25.212 2°50.466 14.4549 0.023891 0.149508 -0.826448
2009-12-14 08:43:49 51°25.227 2°50.464 14.4548 0.023582 0.147547 -0.791624
2009-12-14 08:43:53 51°25.239 2°50.463 14.4279 0.023582 0.147517 -0.826448
2009-12-14 08:43:58 51°25.254 2°50.462 14.4557 0.023685 0.14816 -0.826448
2009-12-14 08:44:04 51°25.272 2°50.461 14.4727 0.023582 0.147535 -0.826448
2009-12-14 08:44:09 51°25.287 2°50.46 14.4539 0.023582 0.147553 -0.826448
2009-12-14 08:44:14 51°25.302 2°50.459 14.4575 0.023582 0.147553 -0.826448
2009-12-14 08:44:18 51°25.314 2°50.458 14.4749 0.023685 0.148218 -0.791624
2009-12-14 08:44:24 51°25.332 2°50.458 14.469 0.023479 0.14691 -0.826448
2009-12-14 08:44:28 51°25.344 2°50.457 14.474 0.023582 0.147553 -0.826448
2009-12-14 08:44:33 51°25.36 2°50.456 14.4586 0.023582 0.147511 -0.826448
2009-12-14 08:44:38 51°25.375 2°50.455 14.4464 0.023582 0.147508 -0.826448
2009-12-14 08:44:44 51°25.393 2°50.455 14.4805 0.023582 0.147508 -0.826448
2009-12-14 08:44:49 51°25.408 2°50.454 14.4442 0.023582 0.147508 -0.826448
2009-12-14 08:44:53 51°25.42 2°50.453 14.4707 0.023685 0.148157 -0.791624
2009-12-14 08:44:58 51°25.435 2°50.453 14.4637 0.023376 0.146204 -0.826448
2009-12-14 08:45:04 51°25.453 2°50.451 14.4418 0.023685 0.148178 -0.826448
2009-12-14 08:45:09 51°25.468 2°50.451 14.4735 0.023582 0.147532 -0.826448
2009-12-14 08:45:13 51°25.48 2°50.45 14.4828 0.023582 0.147532 -0.826448
2009-12-14 08:45:19 51°25.498 2°50.449 14.4616 0.023685 0.14816 -0.826448
2009-12-14 08:45:24 51°25.513 2°50.449 14.45 0.023685 0.148169 -0.826448
2009-12-14 08:45:28 51°25.525 2°50.448 14.4833 0.023479 0.14688 -0.791624
2009-12-14 08:45:33 51°25.54 2°50.447 14.4761 0.023685 0.148193 -0.826448
2009-12-14 08:45:39 51°25.558 2°50.447 14.4687 0.023479 0.14688 -0.826448
2009-12-14 08:45:44 51°25.573 2°50.446 14.481 0.023479 0.14688 -0.826448
2009-12-14 08:45:49 51°25.589 2°50.446 14.5013 0.023479 0.146877 -0.791624
2009-12-14 08:45:53 51°25.601 2°50.446 14.467 0.023582 0.147556 -0.826448
2009-12-14 08:45:58 51°25.616 2°50.445 14.4891 0.023376 0.146249 -0.826448
2009-12-14 08:46:04 51°25.634 2°50.445 14.4648 0.023479 0.146892 -0.826448
2009-12-14 08:46:09 51°25.649 2°50.444 14.4922 0.023582 0.147544 -0.826448
2009-12-14 08:46:13 51°25.661 2°50.444 14.4701 0.023582 0.147544 -0.826448
2009-12-14 08:46:18 51°25.676 2°50.444 14.4669 0.023479 0.146901 -0.826448
2009-12-14 08:46:24 51°25.695 2°50.443 14.5016 0.023582 0.147556 -0.826448
2009-12-14 08:46:28 51°25.707 2°50.443 14.4733 0.023685 0.148205 -0.826448
2009-12-14 08:46:34 51°25.725 2°50.442 14.5078 0.023376 0.146246 -0.826448
2009-12-14 08:46:38 51°25.737 2°50.442 14.4898 0.023788 0.148843 -0.826448
2009-12-14 08:46:44 51°25.755 2°50.441 14.5066 0.023788 0.148843 -0.826448
2009-12-14 08:46:48 51°25.767 2°50.442 14.4904 0.023376 0.14624 -0.826448
2009-12-14 08:46:53 51°25.782 2°50.44 14.5143 0.023376 0.14624 -0.826448
2009-12-14 08:46:58 51°25.797 2°50.441 14.4897 0.023479 0.146886 -0.826448
2009-12-14 08:47:04 51°25.815 2°50.439 14.507 0.023376 0.146231 -0.826448
2009-12-14 08:47:09 51°25.83 2°50.439 14.496 0.023479 0.146883 -0.826448
2009-12-14 08:47:13 51°25.842 2°50.439 14.4713 0.023479 0.146883 -0.826448
2009-12-14 08:47:18 51°25.858 2°50.44 14.5028 0.023582 0.147535 -0.826448
2009-12-14 08:47:24 51°25.876 2°50.439 14.4771 0.023685 0.148169 -0.826448
2009-12-14 08:47:29 51°25.891 2°50.44 14.51 0.023788 0.148834 -0.791624
2009-12-14 08:47:33 51°25.903 2°50.44 14.5082 0.023479 0.14688 -0.826448
2009-12-14 08:47:38 51°25.918 2°50.439 14.503 0.023582 0.147547 -0.826448
2009-12-14 08:47:44 51°25.936 2°50.44 14.4948 0.023582 0.147547 -0.826448
2009-12-14 08:47:48 51°25.949 2°50.439 14.5229 0.023479 0.146886 -0.826448
2009-12-14 08:47:53 51°25.964 2°50.439 14.5035 0.023582 0.147529 -0.826448
2009-12-14 08:47:57 51°25.976 2°50.439 14.519 0.023582 0.147532 -0.791624
2009-12-14 08:48:03 51°25.994 2°50.438 14.5192 0.023788 0.148849 -0.826448
2009-12-14 08:48:09 51°26.012 2°50.437 14.4979 0.023479 0.146898 -0.826448
2009-12-14 08:48:13 51°26.024 2°50.437 14.495 0.023479 0.146898 -0.826448
2009-12-14 08:48:18 51°26.039 2°50.436 14.5106 0.023479 0.146901 -0.826448
2009-12-14 08:48:24 51°26.057 2°50.436 14.5326 0.023479 0.146919 -0.826448
2009-12-14 08:48:29 51°26.072 2°50.436 14.5166 0.023582 0.147589 -0.826448
2009-12-14 08:48:34 51°26.088 2°50.435 14.5251 0.023479 0.146925 -0.826448
2009-12-14 08:48:38 51°26.099 2°50.435 14.5225 0.023685 0.14823 -0.826448
2009-12-14 08:48:44 51°26.117 2°50.435 14.5227 0.023685 0.14823 -0.826448
2009-12-14 08:48:48 51°26.129 2°50.434 14.509 0.023479 0.146934 -0.826448
2009-12-14 08:48:53 51°26.144 2°50.433 14.5313 0.023685 0.14823 -0.826448
2009-12-14 08:48:58 51°26.159 2°50.433 14.519 0.023479 0.146928 -0.826448
2009-12-14 08:49:04 51°26.177 2°50.432 14.5003 0.023685 0.148236 -0.826448
2009-12-14 08:49:08 51°26.189 2°50.432 14.5294 0.023685 0.148227 -0.791624
2009-12-14 08:49:13 51°26.205 2°50.432 14.5229 0.023685 0.148227 -0.791624
2009-12-14 08:49:19 51°26.223 2°50.432 14.5142 0.023376 0.146273 -0.826448
2009-12-14 08:49:24 51°26.238 2°50.431 14.5343 0.023788 0.148873 -0.826448
2009-12-14 08:49:29 51°26.253 2°50.432 14.5226 0.023582 0.147568 -0.826448
2009-12-14 08:49:33 51°26.265 2°50.431 14.5388 0.023479 0.146919 -0.826448
2009-12-14 08:49:39 51°26.283 2°50.432 14.5453 0.023479 0.146916 -0.826448
2009-12-14 08:49:44 51°26.298 2°50.432 14.5446 0.023479 0.146916 -0.826448
2009-12-14 08:49:48 51°26.31 2°50.433 14.5336 0.023891 0.149538 -0.826448
2009-12-14 08:49:53 51°26.325 2°50.433 14.5424 0.023582 0.147586 -0.826448
2009-12-14 08:49:58 51°26.341 2°50.433 14.5306 0.023685 0.148236 -0.826448
2009-12-14 08:50:04 51°26.359 2°50.432 14.5043 0.023685 0.148218 -0.826448
2009-12-14 08:50:09 51°26.374 2°50.432 14.5278 0.023685 0.148221 -0.826448
2009-12-14 08:50:13 51°26.386 2°50.431 14.5416 0.023685 0.148221 -0.826448
2009-12-14 08:50:18 51°26.401 2°50.432 14.5283 0.023582 0.147565 -0.826448
2009-12-14 08:50:24 51°26.419 2°50.431 14.5415 0.023788 0.148867 -0.791624
2009-12-14 08:50:28 51°26.431 2°50.431 14.5358 0.023582 0.147565 -0.826448
2009-12-14 08:50:33 51°26.446 2°50.431 14.5381 0.023891 0.149511 -0.826448
2009-12-14 08:50:39 51°26.464 2°50.43 14.5542 0.023582 0.147541 -0.826448
2009-12-14 08:50:44 51°26.479 2°50.43 14.5508 0.023582 0.147541 -0.826448
2009-12-14 08:50:49 51°26.494 2°50.429 14.5233 0.023891 0.149498 -0.826448
2009-12-14 08:50:53 51°26.506 2°50.429 14.5379 0.023582 0.147547 -0.826448
2009-12-14 08:50:58 51°26.522 2°50.428 14.5366 0.023479 0.146925 -0.826448
2009-12-14 08:51:04 51°26.54 2°50.428 14.5404 0.023788 0.148913 -0.826448
2009-12-14 08:51:08 51°26.552 2°50.427 14.5319 0.023479 0.146946 -0.791624
2009-12-14 08:51:14 51°26.57 2°50.427 14.5517 0.023479 0.146946 -0.791624
2009-12-14 08:51:18 51°26.582 2°50.426 14.5491 0.023582 0.14758 -0.826448
2009-12-14 08:51:24 51°26.6 2°50.425 14.5616 0.023582 0.147577 -0.826448
2009-12-14 08:51:28 51°26.612 2°50.425 14.5518 0.023582 0.147589 -0.826448
2009-12-14 08:51:33 51°26.627 2°50.424 14.5613 0.023685 0.148251 -0.826448
2009-12-14 08:51:39 51°26.645 2°50.424 14.5271 0.023685 0.14826 -0.826448
2009-12-14 08:51:44 51°26.66 2°50.423 14.5612 0.023685 0.14826 -0.826448
2009-12-14 08:51:49 51°26.676 2°50.423 14.5458 0.023479 0.146949 -0.826448
2009-12-14 08:51:53 51°26.688 2°50.423 14.5724 0.023376 0.146284 -0.826448